<?xml version="1.0" encoding="UTF-8" standalone="no" ?>
<gpx xmlns="http://www.topografix.com/GPX/1/1" xmlns:xsi="http://www.w3.org/2001/XMLSchema-instance" xsi:schemaLocation="http://www.topografix.com/GPX/1/1 http://www.topografix.com/GPX/1/1/gpx.xsd" version="1.1" creator="VisuGPX - https://www.visugpx.com">
  <metadata>
    <name>06-MAI-22 11:24:04 AM</name>
  </metadata>
  <trk>
    <name><![CDATA[06-MAI-22 11:24:04 AM]]></name>
    <trkseg>
      <trkpt lat="45.32305" lon="4.77788">
        <ele>127.51</ele>
        <time>2022-05-06T05:47:09Z</time>
      </trkpt>
      <trkpt lat="45.32306" lon="4.77784">
        <ele>144.34</ele>
        <time>2022-05-06T05:47:24Z</time>
      </trkpt>
      <trkpt lat="45.32307" lon="4.77784">
        <ele>144.34</ele>
        <time>2022-05-06T05:47:25Z</time>
      </trkpt>
      <trkpt lat="45.32308" lon="4.77781">
        <ele>141.45</ele>
        <time>2022-05-06T05:47:45Z</time>
      </trkpt>
      <trkpt lat="45.32308" lon="4.77781">
        <ele>141.45</ele>
        <time>2022-05-06T05:47:46Z</time>
      </trkpt>
      <trkpt lat="45.32309" lon="4.7778">
        <ele>141.45</ele>
        <time>2022-05-06T05:48:17Z</time>
      </trkpt>
      <trkpt lat="45.32308" lon="4.77782">
        <ele>140.97</ele>
        <time>2022-05-06T05:48:47Z</time>
      </trkpt>
      <trkpt lat="45.32308" lon="4.77781">
        <ele>141.45</ele>
        <time>2022-05-06T05:49:02Z</time>
      </trkpt>
      <trkpt lat="45.32306" lon="4.77783">
        <ele>141.45</ele>
        <time>2022-05-06T05:49:16Z</time>
      </trkpt>
      <trkpt lat="45.32299" lon="4.77781">
        <ele>141.45</ele>
        <time>2022-05-06T05:49:29Z</time>
      </trkpt>
      <trkpt lat="45.32297" lon="4.77778">
        <ele>141.93</ele>
        <time>2022-05-06T05:49:33Z</time>
      </trkpt>
      <trkpt lat="45.32293" lon="4.77768">
        <ele>141.93</ele>
        <time>2022-05-06T05:49:39Z</time>
      </trkpt>
      <trkpt lat="45.3228" lon="4.77735">
        <ele>140.97</ele>
        <time>2022-05-06T05:49:59Z</time>
      </trkpt>
      <trkpt lat="45.32265" lon="4.77705">
        <ele>140.97</ele>
        <time>2022-05-06T05:50:19Z</time>
      </trkpt>
      <trkpt lat="45.32248" lon="4.77675">
        <ele>140.97</ele>
        <time>2022-05-06T05:50:38Z</time>
      </trkpt>
      <trkpt lat="45.32236" lon="4.77646">
        <ele>140.49</ele>
        <time>2022-05-06T05:50:57Z</time>
      </trkpt>
      <trkpt lat="45.32224" lon="4.77613">
        <ele>140.49</ele>
        <time>2022-05-06T05:51:15Z</time>
      </trkpt>
      <trkpt lat="45.32216" lon="4.77585">
        <ele>140.97</ele>
        <time>2022-05-06T05:51:32Z</time>
      </trkpt>
      <trkpt lat="45.32204" lon="4.77554">
        <ele>140.01</ele>
        <time>2022-05-06T05:51:51Z</time>
      </trkpt>
      <trkpt lat="45.32186" lon="4.77513">
        <ele>140.01</ele>
        <time>2022-05-06T05:52:14Z</time>
      </trkpt>
      <trkpt lat="45.32172" lon="4.77485">
        <ele>140.01</ele>
        <time>2022-05-06T05:52:33Z</time>
      </trkpt>
      <trkpt lat="45.32158" lon="4.77456">
        <ele>140.01</ele>
        <time>2022-05-06T05:52:53Z</time>
      </trkpt>
      <trkpt lat="45.32158" lon="4.77454">
        <ele>140.49</ele>
        <time>2022-05-06T05:52:54Z</time>
      </trkpt>
      <trkpt lat="45.32146" lon="4.77422">
        <ele>140.97</ele>
        <time>2022-05-06T05:53:11Z</time>
      </trkpt>
      <trkpt lat="45.32143" lon="4.77411">
        <ele>140.01</ele>
        <time>2022-05-06T05:53:17Z</time>
      </trkpt>
      <trkpt lat="45.32132" lon="4.7738">
        <ele>140.49</ele>
        <time>2022-05-06T05:53:36Z</time>
      </trkpt>
      <trkpt lat="45.32121" lon="4.7736">
        <ele>140.49</ele>
        <time>2022-05-06T05:53:50Z</time>
      </trkpt>
      <trkpt lat="45.32111" lon="4.77342">
        <ele>140.01</ele>
        <time>2022-05-06T05:54:04Z</time>
      </trkpt>
      <trkpt lat="45.32109" lon="4.77334">
        <ele>140.01</ele>
        <time>2022-05-06T05:54:08Z</time>
      </trkpt>
      <trkpt lat="45.32097" lon="4.77301">
        <ele>140.01</ele>
        <time>2022-05-06T05:54:25Z</time>
      </trkpt>
      <trkpt lat="45.32086" lon="4.77274">
        <ele>140.01</ele>
        <time>2022-05-06T05:54:42Z</time>
      </trkpt>
      <trkpt lat="45.32068" lon="4.77241">
        <ele>139.53</ele>
        <time>2022-05-06T05:55:03Z</time>
      </trkpt>
      <trkpt lat="45.32055" lon="4.77217">
        <ele>140.01</ele>
        <time>2022-05-06T05:55:21Z</time>
      </trkpt>
      <trkpt lat="45.32047" lon="4.77185">
        <ele>139.53</ele>
        <time>2022-05-06T05:55:39Z</time>
      </trkpt>
      <trkpt lat="45.32035" lon="4.77153">
        <ele>139.53</ele>
        <time>2022-05-06T05:55:58Z</time>
      </trkpt>
      <trkpt lat="45.32029" lon="4.77141">
        <ele>140.97</ele>
        <time>2022-05-06T05:56:04Z</time>
      </trkpt>
      <trkpt lat="45.32012" lon="4.77111">
        <ele>140.01</ele>
        <time>2022-05-06T05:56:25Z</time>
      </trkpt>
      <trkpt lat="45.32001" lon="4.77079">
        <ele>140.49</ele>
        <time>2022-05-06T05:56:43Z</time>
      </trkpt>
      <trkpt lat="45.3199" lon="4.77046">
        <ele>140.01</ele>
        <time>2022-05-06T05:57:03Z</time>
      </trkpt>
      <trkpt lat="45.31973" lon="4.77017">
        <ele>140.49</ele>
        <time>2022-05-06T05:57:21Z</time>
      </trkpt>
      <trkpt lat="45.31958" lon="4.76991">
        <ele>141.45</ele>
        <time>2022-05-06T05:57:40Z</time>
      </trkpt>
      <trkpt lat="45.31947" lon="4.76964">
        <ele>141.45</ele>
        <time>2022-05-06T05:57:58Z</time>
      </trkpt>
      <trkpt lat="45.31944" lon="4.76949">
        <ele>141.45</ele>
        <time>2022-05-06T05:58:07Z</time>
      </trkpt>
      <trkpt lat="45.31933" lon="4.7692">
        <ele>143.37</ele>
        <time>2022-05-06T05:58:25Z</time>
      </trkpt>
      <trkpt lat="45.31927" lon="4.769">
        <ele>141.93</ele>
        <time>2022-05-06T05:58:39Z</time>
      </trkpt>
      <trkpt lat="45.31924" lon="4.76898">
        <ele>141.45</ele>
        <time>2022-05-06T05:58:42Z</time>
      </trkpt>
      <trkpt lat="45.31922" lon="4.76898">
        <ele>141.93</ele>
        <time>2022-05-06T05:58:45Z</time>
      </trkpt>
      <trkpt lat="45.31923" lon="4.76892">
        <ele>141.93</ele>
        <time>2022-05-06T05:58:51Z</time>
      </trkpt>
      <trkpt lat="45.31906" lon="4.76868">
        <ele>142.89</ele>
        <time>2022-05-06T05:59:10Z</time>
      </trkpt>
      <trkpt lat="45.31891" lon="4.76844">
        <ele>145.3</ele>
        <time>2022-05-06T05:59:27Z</time>
      </trkpt>
      <trkpt lat="45.31881" lon="4.7682">
        <ele>146.74</ele>
        <time>2022-05-06T05:59:42Z</time>
      </trkpt>
      <trkpt lat="45.3187" lon="4.768">
        <ele>147.22</ele>
        <time>2022-05-06T05:59:56Z</time>
      </trkpt>
      <trkpt lat="45.31859" lon="4.76774">
        <ele>147.7</ele>
        <time>2022-05-06T06:00:12Z</time>
      </trkpt>
      <trkpt lat="45.31858" lon="4.76772">
        <ele>148.18</ele>
        <time>2022-05-06T06:00:14Z</time>
      </trkpt>
      <trkpt lat="45.31856" lon="4.76765">
        <ele>147.7</ele>
        <time>2022-05-06T06:00:18Z</time>
      </trkpt>
      <trkpt lat="45.31845" lon="4.76741">
        <ele>148.18</ele>
        <time>2022-05-06T06:00:33Z</time>
      </trkpt>
      <trkpt lat="45.31835" lon="4.7672">
        <ele>147.7</ele>
        <time>2022-05-06T06:00:47Z</time>
      </trkpt>
      <trkpt lat="45.31821" lon="4.76694">
        <ele>147.7</ele>
        <time>2022-05-06T06:01:04Z</time>
      </trkpt>
      <trkpt lat="45.31809" lon="4.76666">
        <ele>147.22</ele>
        <time>2022-05-06T06:01:21Z</time>
      </trkpt>
      <trkpt lat="45.31808" lon="4.76663">
        <ele>146.74</ele>
        <time>2022-05-06T06:01:23Z</time>
      </trkpt>
      <trkpt lat="45.31795" lon="4.76635">
        <ele>145.78</ele>
        <time>2022-05-06T06:01:41Z</time>
      </trkpt>
      <trkpt lat="45.3179" lon="4.76621">
        <ele>145.3</ele>
        <time>2022-05-06T06:01:53Z</time>
      </trkpt>
      <trkpt lat="45.31764" lon="4.76623">
        <ele>144.34</ele>
        <time>2022-05-06T06:02:10Z</time>
      </trkpt>
      <trkpt lat="45.3174" lon="4.76639">
        <ele>142.89</ele>
        <time>2022-05-06T06:02:29Z</time>
      </trkpt>
      <trkpt lat="45.31733" lon="4.76646">
        <ele>142.41</ele>
        <time>2022-05-06T06:02:35Z</time>
      </trkpt>
      <trkpt lat="45.31728" lon="4.76647">
        <ele>142.41</ele>
        <time>2022-05-06T06:02:39Z</time>
      </trkpt>
      <trkpt lat="45.31707" lon="4.76662">
        <ele>141.45</ele>
        <time>2022-05-06T06:02:58Z</time>
      </trkpt>
      <trkpt lat="45.31696" lon="4.7667">
        <ele>140.97</ele>
        <time>2022-05-06T06:03:07Z</time>
      </trkpt>
      <trkpt lat="45.31689" lon="4.76672">
        <ele>140.97</ele>
        <time>2022-05-06T06:03:13Z</time>
      </trkpt>
      <trkpt lat="45.31685" lon="4.76673">
        <ele>141.45</ele>
        <time>2022-05-06T06:03:16Z</time>
      </trkpt>
      <trkpt lat="45.31664" lon="4.76686">
        <ele>140.97</ele>
        <time>2022-05-06T06:03:35Z</time>
      </trkpt>
      <trkpt lat="45.31652" lon="4.76699">
        <ele>140.97</ele>
        <time>2022-05-06T06:03:48Z</time>
      </trkpt>
      <trkpt lat="45.31632" lon="4.76722">
        <ele>141.45</ele>
        <time>2022-05-06T06:04:06Z</time>
      </trkpt>
      <trkpt lat="45.31611" lon="4.76737">
        <ele>140.97</ele>
        <time>2022-05-06T06:04:24Z</time>
      </trkpt>
      <trkpt lat="45.31592" lon="4.76762">
        <ele>140.97</ele>
        <time>2022-05-06T06:04:43Z</time>
      </trkpt>
      <trkpt lat="45.31579" lon="4.76786">
        <ele>140.97</ele>
        <time>2022-05-06T06:04:58Z</time>
      </trkpt>
      <trkpt lat="45.31563" lon="4.76802">
        <ele>141.45</ele>
        <time>2022-05-06T06:05:15Z</time>
      </trkpt>
      <trkpt lat="45.3156" lon="4.76807">
        <ele>140.97</ele>
        <time>2022-05-06T06:05:19Z</time>
      </trkpt>
      <trkpt lat="45.31558" lon="4.76821">
        <ele>140.49</ele>
        <time>2022-05-06T06:05:30Z</time>
      </trkpt>
      <trkpt lat="45.31545" lon="4.76849">
        <ele>141.45</ele>
        <time>2022-05-06T06:05:46Z</time>
      </trkpt>
      <trkpt lat="45.31531" lon="4.76869">
        <ele>140.49</ele>
        <time>2022-05-06T06:05:59Z</time>
      </trkpt>
      <trkpt lat="45.31514" lon="4.76892">
        <ele>140.97</ele>
        <time>2022-05-06T06:06:16Z</time>
      </trkpt>
      <trkpt lat="45.31497" lon="4.7691">
        <ele>140.49</ele>
        <time>2022-05-06T06:06:33Z</time>
      </trkpt>
      <trkpt lat="45.31494" lon="4.76915">
        <ele>140.97</ele>
        <time>2022-05-06T06:06:37Z</time>
      </trkpt>
      <trkpt lat="45.31479" lon="4.76936">
        <ele>140.01</ele>
        <time>2022-05-06T06:06:53Z</time>
      </trkpt>
      <trkpt lat="45.31475" lon="4.76944">
        <ele>140.49</ele>
        <time>2022-05-06T06:07:00Z</time>
      </trkpt>
      <trkpt lat="45.31465" lon="4.76968">
        <ele>140.49</ele>
        <time>2022-05-06T06:07:16Z</time>
      </trkpt>
      <trkpt lat="45.31448" lon="4.76995">
        <ele>140.49</ele>
        <time>2022-05-06T06:07:35Z</time>
      </trkpt>
      <trkpt lat="45.31436" lon="4.77018">
        <ele>140.01</ele>
        <time>2022-05-06T06:07:50Z</time>
      </trkpt>
      <trkpt lat="45.31428" lon="4.77038">
        <ele>140.49</ele>
        <time>2022-05-06T06:08:04Z</time>
      </trkpt>
      <trkpt lat="45.31414" lon="4.77063">
        <ele>140.01</ele>
        <time>2022-05-06T06:08:19Z</time>
      </trkpt>
      <trkpt lat="45.31398" lon="4.77085">
        <ele>139.53</ele>
        <time>2022-05-06T06:08:35Z</time>
      </trkpt>
      <trkpt lat="45.31394" lon="4.77078">
        <ele>140.01</ele>
        <time>2022-05-06T06:08:40Z</time>
      </trkpt>
      <trkpt lat="45.31389" lon="4.77057">
        <ele>140.97</ele>
        <time>2022-05-06T06:08:53Z</time>
      </trkpt>
      <trkpt lat="45.31395" lon="4.77052">
        <ele>141.45</ele>
        <time>2022-05-06T06:08:59Z</time>
      </trkpt>
      <trkpt lat="45.31399" lon="4.77042">
        <ele>141.93</ele>
        <time>2022-05-06T06:09:08Z</time>
      </trkpt>
      <trkpt lat="45.31394" lon="4.77036">
        <ele>140.97</ele>
        <time>2022-05-06T06:09:13Z</time>
      </trkpt>
      <trkpt lat="45.31381" lon="4.77028">
        <ele>140.97</ele>
        <time>2022-05-06T06:09:26Z</time>
      </trkpt>
      <trkpt lat="45.31374" lon="4.77022">
        <ele>140.97</ele>
        <time>2022-05-06T06:09:35Z</time>
      </trkpt>
      <trkpt lat="45.31368" lon="4.77021">
        <ele>140.01</ele>
        <time>2022-05-06T06:09:41Z</time>
      </trkpt>
      <trkpt lat="45.31362" lon="4.77013">
        <ele>140.01</ele>
        <time>2022-05-06T06:09:48Z</time>
      </trkpt>
      <trkpt lat="45.31352" lon="4.77011">
        <ele>140.01</ele>
        <time>2022-05-06T06:09:55Z</time>
      </trkpt>
      <trkpt lat="45.31328" lon="4.77013">
        <ele>140.01</ele>
        <time>2022-05-06T06:10:14Z</time>
      </trkpt>
      <trkpt lat="45.31325" lon="4.77009">
        <ele>140.97</ele>
        <time>2022-05-06T06:10:18Z</time>
      </trkpt>
      <trkpt lat="45.31312" lon="4.76995">
        <ele>140.97</ele>
        <time>2022-05-06T06:10:33Z</time>
      </trkpt>
      <trkpt lat="45.31314" lon="4.76994">
        <ele>140.01</ele>
        <time>2022-05-06T06:10:45Z</time>
      </trkpt>
      <trkpt lat="45.31313" lon="4.76992">
        <ele>141.93</ele>
        <time>2022-05-06T06:10:56Z</time>
      </trkpt>
      <trkpt lat="45.31317" lon="4.76993">
        <ele>141.45</ele>
        <time>2022-05-06T06:11:15Z</time>
      </trkpt>
      <trkpt lat="45.31311" lon="4.76994">
        <ele>141.45</ele>
        <time>2022-05-06T06:11:37Z</time>
      </trkpt>
      <trkpt lat="45.313" lon="4.76988">
        <ele>141.45</ele>
        <time>2022-05-06T06:12:10Z</time>
      </trkpt>
      <trkpt lat="45.31296" lon="4.76987">
        <ele>141.93</ele>
        <time>2022-05-06T06:12:20Z</time>
      </trkpt>
      <trkpt lat="45.31294" lon="4.76986">
        <ele>142.41</ele>
        <time>2022-05-06T06:12:23Z</time>
      </trkpt>
      <trkpt lat="45.31276" lon="4.7697">
        <ele>142.89</ele>
        <time>2022-05-06T06:12:42Z</time>
      </trkpt>
      <trkpt lat="45.31258" lon="4.76972">
        <ele>145.78</ele>
        <time>2022-05-06T06:12:58Z</time>
      </trkpt>
      <trkpt lat="45.31238" lon="4.76973">
        <ele>147.7</ele>
        <time>2022-05-06T06:13:17Z</time>
      </trkpt>
      <trkpt lat="45.31233" lon="4.76969">
        <ele>147.7</ele>
        <time>2022-05-06T06:13:21Z</time>
      </trkpt>
      <trkpt lat="45.31224" lon="4.76964">
        <ele>149.62</ele>
        <time>2022-05-06T06:13:29Z</time>
      </trkpt>
      <trkpt lat="45.31205" lon="4.76958">
        <ele>151.06</ele>
        <time>2022-05-06T06:13:46Z</time>
      </trkpt>
      <trkpt lat="45.31191" lon="4.76951">
        <ele>153.95</ele>
        <time>2022-05-06T06:14:02Z</time>
      </trkpt>
      <trkpt lat="45.31179" lon="4.76936">
        <ele>156.35</ele>
        <time>2022-05-06T06:14:18Z</time>
      </trkpt>
      <trkpt lat="45.31166" lon="4.7692">
        <ele>159.72</ele>
        <time>2022-05-06T06:14:34Z</time>
      </trkpt>
      <trkpt lat="45.3115" lon="4.76904">
        <ele>162.12</ele>
        <time>2022-05-06T06:14:52Z</time>
      </trkpt>
      <trkpt lat="45.31144" lon="4.76896">
        <ele>162.6</ele>
        <time>2022-05-06T06:14:59Z</time>
      </trkpt>
      <trkpt lat="45.31134" lon="4.76884">
        <ele>163.56</ele>
        <time>2022-05-06T06:15:10Z</time>
      </trkpt>
      <trkpt lat="45.31133" lon="4.76883">
        <ele>164.04</ele>
        <time>2022-05-06T06:15:11Z</time>
      </trkpt>
      <trkpt lat="45.31117" lon="4.76865">
        <ele>165.48</ele>
        <time>2022-05-06T06:15:30Z</time>
      </trkpt>
      <trkpt lat="45.31101" lon="4.76847">
        <ele>168.37</ele>
        <time>2022-05-06T06:15:47Z</time>
      </trkpt>
      <trkpt lat="45.31096" lon="4.76845">
        <ele>168.85</ele>
        <time>2022-05-06T06:15:51Z</time>
      </trkpt>
      <trkpt lat="45.31083" lon="4.76826">
        <ele>170.29</ele>
        <time>2022-05-06T06:16:07Z</time>
      </trkpt>
      <trkpt lat="45.31073" lon="4.76817">
        <ele>171.25</ele>
        <time>2022-05-06T06:16:16Z</time>
      </trkpt>
      <trkpt lat="45.31054" lon="4.76791">
        <ele>171.73</ele>
        <time>2022-05-06T06:16:35Z</time>
      </trkpt>
      <trkpt lat="45.31042" lon="4.76778">
        <ele>173.66</ele>
        <time>2022-05-06T06:16:48Z</time>
      </trkpt>
      <trkpt lat="45.31029" lon="4.76757">
        <ele>175.58</ele>
        <time>2022-05-06T06:17:03Z</time>
      </trkpt>
      <trkpt lat="45.31018" lon="4.76732">
        <ele>177.98</ele>
        <time>2022-05-06T06:17:21Z</time>
      </trkpt>
      <trkpt lat="45.31012" lon="4.76704">
        <ele>180.87</ele>
        <time>2022-05-06T06:17:40Z</time>
      </trkpt>
      <trkpt lat="45.31003" lon="4.76677">
        <ele>184.23</ele>
        <time>2022-05-06T06:17:58Z</time>
      </trkpt>
      <trkpt lat="45.30991" lon="4.76658">
        <ele>186.15</ele>
        <time>2022-05-06T06:18:15Z</time>
      </trkpt>
      <trkpt lat="45.30976" lon="4.7664">
        <ele>189.04</ele>
        <time>2022-05-06T06:18:33Z</time>
      </trkpt>
      <trkpt lat="45.30966" lon="4.76613">
        <ele>191.44</ele>
        <time>2022-05-06T06:18:52Z</time>
      </trkpt>
      <trkpt lat="45.30953" lon="4.76593">
        <ele>194.32</ele>
        <time>2022-05-06T06:19:09Z</time>
      </trkpt>
      <trkpt lat="45.30943" lon="4.76572">
        <ele>197.21</ele>
        <time>2022-05-06T06:19:25Z</time>
      </trkpt>
      <trkpt lat="45.30936" lon="4.76547">
        <ele>199.13</ele>
        <time>2022-05-06T06:19:39Z</time>
      </trkpt>
      <trkpt lat="45.30929" lon="4.76524">
        <ele>201.05</ele>
        <time>2022-05-06T06:19:57Z</time>
      </trkpt>
      <trkpt lat="45.30923" lon="4.76506">
        <ele>203.46</ele>
        <time>2022-05-06T06:20:11Z</time>
      </trkpt>
      <trkpt lat="45.30914" lon="4.76487">
        <ele>204.9</ele>
        <time>2022-05-06T06:20:24Z</time>
      </trkpt>
      <trkpt lat="45.30902" lon="4.76471">
        <ele>206.82</ele>
        <time>2022-05-06T06:20:40Z</time>
      </trkpt>
      <trkpt lat="45.30903" lon="4.76461">
        <ele>207.78</ele>
        <time>2022-05-06T06:20:50Z</time>
      </trkpt>
      <trkpt lat="45.30915" lon="4.76437">
        <ele>208.26</ele>
        <time>2022-05-06T06:21:09Z</time>
      </trkpt>
      <trkpt lat="45.30915" lon="4.76418">
        <ele>209.7</ele>
        <time>2022-05-06T06:21:23Z</time>
      </trkpt>
      <trkpt lat="45.30913" lon="4.76399">
        <ele>211.15</ele>
        <time>2022-05-06T06:21:36Z</time>
      </trkpt>
      <trkpt lat="45.3091" lon="4.76392">
        <ele>211.63</ele>
        <time>2022-05-06T06:21:42Z</time>
      </trkpt>
      <trkpt lat="45.30902" lon="4.76371">
        <ele>213.55</ele>
        <time>2022-05-06T06:21:59Z</time>
      </trkpt>
      <trkpt lat="45.30898" lon="4.76334">
        <ele>215.47</ele>
        <time>2022-05-06T06:22:15Z</time>
      </trkpt>
      <trkpt lat="45.30898" lon="4.76323">
        <ele>218.84</ele>
        <time>2022-05-06T06:22:30Z</time>
      </trkpt>
      <trkpt lat="45.30899" lon="4.76324">
        <ele>218.84</ele>
        <time>2022-05-06T06:22:31Z</time>
      </trkpt>
      <trkpt lat="45.30903" lon="4.76331">
        <ele>219.32</ele>
        <time>2022-05-06T06:22:37Z</time>
      </trkpt>
      <trkpt lat="45.30909" lon="4.76351">
        <ele>219.32</ele>
        <time>2022-05-06T06:22:53Z</time>
      </trkpt>
      <trkpt lat="45.30911" lon="4.76355">
        <ele>219.32</ele>
        <time>2022-05-06T06:22:56Z</time>
      </trkpt>
      <trkpt lat="45.30914" lon="4.76368">
        <ele>219.8</ele>
        <time>2022-05-06T06:23:06Z</time>
      </trkpt>
      <trkpt lat="45.30926" lon="4.76394">
        <ele>219.8</ele>
        <time>2022-05-06T06:23:22Z</time>
      </trkpt>
      <trkpt lat="45.30924" lon="4.76398">
        <ele>220.28</ele>
        <time>2022-05-06T06:23:29Z</time>
      </trkpt>
      <trkpt lat="45.3091" lon="4.76411">
        <ele>220.76</ele>
        <time>2022-05-06T06:23:45Z</time>
      </trkpt>
      <trkpt lat="45.30898" lon="4.76419">
        <ele>222.2</ele>
        <time>2022-05-06T06:23:59Z</time>
      </trkpt>
      <trkpt lat="45.30888" lon="4.7645">
        <ele>224.12</ele>
        <time>2022-05-06T06:24:12Z</time>
      </trkpt>
      <trkpt lat="45.30892" lon="4.76468">
        <ele>224.61</ele>
        <time>2022-05-06T06:24:23Z</time>
      </trkpt>
      <trkpt lat="45.309" lon="4.76503">
        <ele>226.05</ele>
        <time>2022-05-06T06:24:40Z</time>
      </trkpt>
      <trkpt lat="45.30905" lon="4.76517">
        <ele>226.05</ele>
        <time>2022-05-06T06:24:48Z</time>
      </trkpt>
      <trkpt lat="45.30908" lon="4.7654">
        <ele>226.53</ele>
        <time>2022-05-06T06:25:05Z</time>
      </trkpt>
      <trkpt lat="45.30909" lon="4.76561">
        <ele>228.45</ele>
        <time>2022-05-06T06:25:20Z</time>
      </trkpt>
      <trkpt lat="45.30909" lon="4.76574">
        <ele>229.41</ele>
        <time>2022-05-06T06:25:27Z</time>
      </trkpt>
      <trkpt lat="45.30908" lon="4.7659">
        <ele>230.37</ele>
        <time>2022-05-06T06:25:37Z</time>
      </trkpt>
      <trkpt lat="45.30907" lon="4.76595">
        <ele>230.37</ele>
        <time>2022-05-06T06:25:40Z</time>
      </trkpt>
      <trkpt lat="45.30904" lon="4.76611">
        <ele>231.33</ele>
        <time>2022-05-06T06:25:51Z</time>
      </trkpt>
      <trkpt lat="45.30891" lon="4.76625">
        <ele>233.26</ele>
        <time>2022-05-06T06:26:07Z</time>
      </trkpt>
      <trkpt lat="45.3088" lon="4.7665">
        <ele>234.7</ele>
        <time>2022-05-06T06:26:22Z</time>
      </trkpt>
      <trkpt lat="45.30868" lon="4.76656">
        <ele>235.66</ele>
        <time>2022-05-06T06:26:34Z</time>
      </trkpt>
      <trkpt lat="45.30864" lon="4.76653">
        <ele>236.14</ele>
        <time>2022-05-06T06:26:39Z</time>
      </trkpt>
      <trkpt lat="45.30854" lon="4.76639">
        <ele>238.06</ele>
        <time>2022-05-06T06:26:55Z</time>
      </trkpt>
      <trkpt lat="45.30836" lon="4.76633">
        <ele>239.51</ele>
        <time>2022-05-06T06:27:11Z</time>
      </trkpt>
      <trkpt lat="45.30823" lon="4.76644">
        <ele>240.95</ele>
        <time>2022-05-06T06:27:25Z</time>
      </trkpt>
      <trkpt lat="45.30809" lon="4.76653">
        <ele>242.39</ele>
        <time>2022-05-06T06:27:37Z</time>
      </trkpt>
      <trkpt lat="45.30796" lon="4.76649">
        <ele>243.83</ele>
        <time>2022-05-06T06:27:50Z</time>
      </trkpt>
      <trkpt lat="45.3078" lon="4.76647">
        <ele>246.23</ele>
        <time>2022-05-06T06:28:05Z</time>
      </trkpt>
      <trkpt lat="45.30764" lon="4.76644">
        <ele>248.64</ele>
        <time>2022-05-06T06:28:20Z</time>
      </trkpt>
      <trkpt lat="45.30759" lon="4.76642">
        <ele>249.12</ele>
        <time>2022-05-06T06:28:25Z</time>
      </trkpt>
      <trkpt lat="45.30744" lon="4.76652">
        <ele>249.12</ele>
        <time>2022-05-06T06:28:39Z</time>
      </trkpt>
      <trkpt lat="45.30737" lon="4.7669">
        <ele>249.6</ele>
        <time>2022-05-06T06:28:57Z</time>
      </trkpt>
      <trkpt lat="45.30745" lon="4.76715">
        <ele>251.04</ele>
        <time>2022-05-06T06:29:14Z</time>
      </trkpt>
      <trkpt lat="45.30759" lon="4.76745">
        <ele>252.48</ele>
        <time>2022-05-06T06:29:32Z</time>
      </trkpt>
      <trkpt lat="45.30765" lon="4.76774">
        <ele>252.96</ele>
        <time>2022-05-06T06:29:48Z</time>
      </trkpt>
      <trkpt lat="45.30765" lon="4.76776">
        <ele>253.44</ele>
        <time>2022-05-06T06:29:49Z</time>
      </trkpt>
      <trkpt lat="45.30771" lon="4.76785">
        <ele>253.44</ele>
        <time>2022-05-06T06:29:56Z</time>
      </trkpt>
      <trkpt lat="45.30781" lon="4.76797">
        <ele>254.41</ele>
        <time>2022-05-06T06:30:06Z</time>
      </trkpt>
      <trkpt lat="45.30779" lon="4.76811">
        <ele>254.89</ele>
        <time>2022-05-06T06:30:15Z</time>
      </trkpt>
      <trkpt lat="45.30777" lon="4.76835">
        <ele>256.81</ele>
        <time>2022-05-06T06:30:31Z</time>
      </trkpt>
      <trkpt lat="45.30776" lon="4.76838">
        <ele>257.29</ele>
        <time>2022-05-06T06:30:34Z</time>
      </trkpt>
      <trkpt lat="45.30771" lon="4.76847">
        <ele>258.25</ele>
        <time>2022-05-06T06:30:41Z</time>
      </trkpt>
      <trkpt lat="45.30768" lon="4.76852">
        <ele>258.73</ele>
        <time>2022-05-06T06:30:45Z</time>
      </trkpt>
      <trkpt lat="45.30758" lon="4.76861">
        <ele>261.62</ele>
        <time>2022-05-06T06:31:00Z</time>
      </trkpt>
      <trkpt lat="45.30743" lon="4.76874">
        <ele>263.06</ele>
        <time>2022-05-06T06:31:17Z</time>
      </trkpt>
      <trkpt lat="45.30726" lon="4.76883">
        <ele>264.98</ele>
        <time>2022-05-06T06:31:30Z</time>
      </trkpt>
      <trkpt lat="45.30708" lon="4.76885">
        <ele>267.38</ele>
        <time>2022-05-06T06:31:47Z</time>
      </trkpt>
      <trkpt lat="45.30694" lon="4.76886">
        <ele>269.31</ele>
        <time>2022-05-06T06:32:01Z</time>
      </trkpt>
      <trkpt lat="45.30691" lon="4.76881">
        <ele>270.75</ele>
        <time>2022-05-06T06:32:07Z</time>
      </trkpt>
      <trkpt lat="45.30676" lon="4.76881">
        <ele>271.23</ele>
        <time>2022-05-06T06:32:21Z</time>
      </trkpt>
      <trkpt lat="45.30668" lon="4.76883">
        <ele>271.71</ele>
        <time>2022-05-06T06:32:27Z</time>
      </trkpt>
      <trkpt lat="45.30656" lon="4.76902">
        <ele>272.67</ele>
        <time>2022-05-06T06:32:37Z</time>
      </trkpt>
      <trkpt lat="45.30656" lon="4.76923">
        <ele>274.11</ele>
        <time>2022-05-06T06:32:49Z</time>
      </trkpt>
      <trkpt lat="45.30658" lon="4.76947">
        <ele>275.07</ele>
        <time>2022-05-06T06:33:02Z</time>
      </trkpt>
      <trkpt lat="45.30659" lon="4.76972">
        <ele>277</ele>
        <time>2022-05-06T06:33:17Z</time>
      </trkpt>
      <trkpt lat="45.3066" lon="4.76994">
        <ele>278.44</ele>
        <time>2022-05-06T06:33:33Z</time>
      </trkpt>
      <trkpt lat="45.30644" lon="4.77021">
        <ele>280.36</ele>
        <time>2022-05-06T06:33:53Z</time>
      </trkpt>
      <trkpt lat="45.30627" lon="4.77038">
        <ele>281.8</ele>
        <time>2022-05-06T06:34:11Z</time>
      </trkpt>
      <trkpt lat="45.30611" lon="4.77053">
        <ele>283.25</ele>
        <time>2022-05-06T06:34:27Z</time>
      </trkpt>
      <trkpt lat="45.30606" lon="4.77056">
        <ele>284.21</ele>
        <time>2022-05-06T06:34:32Z</time>
      </trkpt>
      <trkpt lat="45.30603" lon="4.77061">
        <ele>284.69</ele>
        <time>2022-05-06T06:34:36Z</time>
      </trkpt>
      <trkpt lat="45.30586" lon="4.77071">
        <ele>286.61</ele>
        <time>2022-05-06T06:34:52Z</time>
      </trkpt>
      <trkpt lat="45.30577" lon="4.77075">
        <ele>287.57</ele>
        <time>2022-05-06T06:35:02Z</time>
      </trkpt>
      <trkpt lat="45.30554" lon="4.77079">
        <ele>289.01</ele>
        <time>2022-05-06T06:35:20Z</time>
      </trkpt>
      <trkpt lat="45.30532" lon="4.77085">
        <ele>290.94</ele>
        <time>2022-05-06T06:35:38Z</time>
      </trkpt>
      <trkpt lat="45.30513" lon="4.77088">
        <ele>293.34</ele>
        <time>2022-05-06T06:35:53Z</time>
      </trkpt>
      <trkpt lat="45.30508" lon="4.77088">
        <ele>292.86</ele>
        <time>2022-05-06T06:35:57Z</time>
      </trkpt>
      <trkpt lat="45.30484" lon="4.77081">
        <ele>295.26</ele>
        <time>2022-05-06T06:36:18Z</time>
      </trkpt>
      <trkpt lat="45.30469" lon="4.77066">
        <ele>297.67</ele>
        <time>2022-05-06T06:36:35Z</time>
      </trkpt>
      <trkpt lat="45.30467" lon="4.77063">
        <ele>297.67</ele>
        <time>2022-05-06T06:36:37Z</time>
      </trkpt>
      <trkpt lat="45.30462" lon="4.77056">
        <ele>298.63</ele>
        <time>2022-05-06T06:36:43Z</time>
      </trkpt>
      <trkpt lat="45.30442" lon="4.77039">
        <ele>299.59</ele>
        <time>2022-05-06T06:37:01Z</time>
      </trkpt>
      <trkpt lat="45.30424" lon="4.77019">
        <ele>301.51</ele>
        <time>2022-05-06T06:37:19Z</time>
      </trkpt>
      <trkpt lat="45.30412" lon="4.76998">
        <ele>301.99</ele>
        <time>2022-05-06T06:37:35Z</time>
      </trkpt>
      <trkpt lat="45.3041" lon="4.76995">
        <ele>301.99</ele>
        <time>2022-05-06T06:37:37Z</time>
      </trkpt>
      <trkpt lat="45.30382" lon="4.76984">
        <ele>303.43</ele>
        <time>2022-05-06T06:37:58Z</time>
      </trkpt>
      <trkpt lat="45.3036" lon="4.76996">
        <ele>305.84</ele>
        <time>2022-05-06T06:38:18Z</time>
      </trkpt>
      <trkpt lat="45.30341" lon="4.76992">
        <ele>306.8</ele>
        <time>2022-05-06T06:38:36Z</time>
      </trkpt>
      <trkpt lat="45.30327" lon="4.76968">
        <ele>308.24</ele>
        <time>2022-05-06T06:38:55Z</time>
      </trkpt>
      <trkpt lat="45.30325" lon="4.76963">
        <ele>308.24</ele>
        <time>2022-05-06T06:38:59Z</time>
      </trkpt>
      <trkpt lat="45.3032" lon="4.76951">
        <ele>308.24</ele>
        <time>2022-05-06T06:39:06Z</time>
      </trkpt>
      <trkpt lat="45.30291" lon="4.76951">
        <ele>309.2</ele>
        <time>2022-05-06T06:39:24Z</time>
      </trkpt>
      <trkpt lat="45.3028" lon="4.7695">
        <ele>309.68</ele>
        <time>2022-05-06T06:39:32Z</time>
      </trkpt>
      <trkpt lat="45.30256" lon="4.76941">
        <ele>310.64</ele>
        <time>2022-05-06T06:39:51Z</time>
      </trkpt>
      <trkpt lat="45.3024" lon="4.76961">
        <ele>312.09</ele>
        <time>2022-05-06T06:40:09Z</time>
      </trkpt>
      <trkpt lat="45.30232" lon="4.76995">
        <ele>311.6</ele>
        <time>2022-05-06T06:40:27Z</time>
      </trkpt>
      <trkpt lat="45.30233" lon="4.77031">
        <ele>314.01</ele>
        <time>2022-05-06T06:40:46Z</time>
      </trkpt>
      <trkpt lat="45.30231" lon="4.77065">
        <ele>314.01</ele>
        <time>2022-05-06T06:41:03Z</time>
      </trkpt>
      <trkpt lat="45.30228" lon="4.77073">
        <ele>315.45</ele>
        <time>2022-05-06T06:41:09Z</time>
      </trkpt>
      <trkpt lat="45.30206" lon="4.77077">
        <ele>317.37</ele>
        <time>2022-05-06T06:41:26Z</time>
      </trkpt>
      <trkpt lat="45.30184" lon="4.77083">
        <ele>320.26</ele>
        <time>2022-05-06T06:41:45Z</time>
      </trkpt>
      <trkpt lat="45.30163" lon="4.77091">
        <ele>323.62</ele>
        <time>2022-05-06T06:42:04Z</time>
      </trkpt>
      <trkpt lat="45.30139" lon="4.77099">
        <ele>324.1</ele>
        <time>2022-05-06T06:42:23Z</time>
      </trkpt>
      <trkpt lat="45.30116" lon="4.77104">
        <ele>325.54</ele>
        <time>2022-05-06T06:42:42Z</time>
      </trkpt>
      <trkpt lat="45.30111" lon="4.77107">
        <ele>326.02</ele>
        <time>2022-05-06T06:42:47Z</time>
      </trkpt>
      <trkpt lat="45.30087" lon="4.77111">
        <ele>326.5</ele>
        <time>2022-05-06T06:43:06Z</time>
      </trkpt>
      <trkpt lat="45.30063" lon="4.77115">
        <ele>326.99</ele>
        <time>2022-05-06T06:43:25Z</time>
      </trkpt>
      <trkpt lat="45.30042" lon="4.77122">
        <ele>328.91</ele>
        <time>2022-05-06T06:43:41Z</time>
      </trkpt>
      <trkpt lat="45.30016" lon="4.77127">
        <ele>328.91</ele>
        <time>2022-05-06T06:44:01Z</time>
      </trkpt>
      <trkpt lat="45.30003" lon="4.77135">
        <ele>330.35</ele>
        <time>2022-05-06T06:44:15Z</time>
      </trkpt>
      <trkpt lat="45.30004" lon="4.77143">
        <ele>328.91</ele>
        <time>2022-05-06T06:44:19Z</time>
      </trkpt>
      <trkpt lat="45.30001" lon="4.77171">
        <ele>328.43</ele>
        <time>2022-05-06T06:44:36Z</time>
      </trkpt>
      <trkpt lat="45.29996" lon="4.77183">
        <ele>328.43</ele>
        <time>2022-05-06T06:44:46Z</time>
      </trkpt>
      <trkpt lat="45.29973" lon="4.77192">
        <ele>329.39</ele>
        <time>2022-05-06T06:45:04Z</time>
      </trkpt>
      <trkpt lat="45.29959" lon="4.77198">
        <ele>328.43</ele>
        <time>2022-05-06T06:45:20Z</time>
      </trkpt>
      <trkpt lat="45.29959" lon="4.77199">
        <ele>328.43</ele>
        <time>2022-05-06T06:45:34Z</time>
      </trkpt>
      <trkpt lat="45.29958" lon="4.77199">
        <ele>327.95</ele>
        <time>2022-05-06T06:45:51Z</time>
      </trkpt>
      <trkpt lat="45.29955" lon="4.77199">
        <ele>328.91</ele>
        <time>2022-05-06T06:46:18Z</time>
      </trkpt>
      <trkpt lat="45.29954" lon="4.77197">
        <ele>328.43</ele>
        <time>2022-05-06T06:46:30Z</time>
      </trkpt>
      <trkpt lat="45.29952" lon="4.77193">
        <ele>328.43</ele>
        <time>2022-05-06T06:46:42Z</time>
      </trkpt>
      <trkpt lat="45.29938" lon="4.77182">
        <ele>327.47</ele>
        <time>2022-05-06T06:46:59Z</time>
      </trkpt>
      <trkpt lat="45.29931" lon="4.77174">
        <ele>326.99</ele>
        <time>2022-05-06T06:47:08Z</time>
      </trkpt>
      <trkpt lat="45.2992" lon="4.77163">
        <ele>326.02</ele>
        <time>2022-05-06T06:47:18Z</time>
      </trkpt>
      <trkpt lat="45.29919" lon="4.77139">
        <ele>326.02</ele>
        <time>2022-05-06T06:47:35Z</time>
      </trkpt>
      <trkpt lat="45.29899" lon="4.77138">
        <ele>324.58</ele>
        <time>2022-05-06T06:47:53Z</time>
      </trkpt>
      <trkpt lat="45.29899" lon="4.77137">
        <ele>324.1</ele>
        <time>2022-05-06T06:47:54Z</time>
      </trkpt>
      <trkpt lat="45.29888" lon="4.77112">
        <ele>324.58</ele>
        <time>2022-05-06T06:48:09Z</time>
      </trkpt>
      <trkpt lat="45.29871" lon="4.77108">
        <ele>321.22</ele>
        <time>2022-05-06T06:48:22Z</time>
      </trkpt>
      <trkpt lat="45.29867" lon="4.77107">
        <ele>321.22</ele>
        <time>2022-05-06T06:48:25Z</time>
      </trkpt>
      <trkpt lat="45.29865" lon="4.77106">
        <ele>320.74</ele>
        <time>2022-05-06T06:48:27Z</time>
      </trkpt>
      <trkpt lat="45.2986" lon="4.7712">
        <ele>317.85</ele>
        <time>2022-05-06T06:48:41Z</time>
      </trkpt>
      <trkpt lat="45.29859" lon="4.77121">
        <ele>317.37</ele>
        <time>2022-05-06T06:48:42Z</time>
      </trkpt>
      <trkpt lat="45.29844" lon="4.77143">
        <ele>314.97</ele>
        <time>2022-05-06T06:49:00Z</time>
      </trkpt>
      <trkpt lat="45.29841" lon="4.77164">
        <ele>312.09</ele>
        <time>2022-05-06T06:49:16Z</time>
      </trkpt>
      <trkpt lat="45.29843" lon="4.7717">
        <ele>311.12</ele>
        <time>2022-05-06T06:49:21Z</time>
      </trkpt>
      <trkpt lat="45.29852" lon="4.77188">
        <ele>308.72</ele>
        <time>2022-05-06T06:49:37Z</time>
      </trkpt>
      <trkpt lat="45.29851" lon="4.77191">
        <ele>308.24</ele>
        <time>2022-05-06T06:49:39Z</time>
      </trkpt>
      <trkpt lat="45.2984" lon="4.7719">
        <ele>305.84</ele>
        <time>2022-05-06T06:49:51Z</time>
      </trkpt>
      <trkpt lat="45.29835" lon="4.77188">
        <ele>304.88</ele>
        <time>2022-05-06T06:49:56Z</time>
      </trkpt>
      <trkpt lat="45.29825" lon="4.77172">
        <ele>302.95</ele>
        <time>2022-05-06T06:50:11Z</time>
      </trkpt>
      <trkpt lat="45.29823" lon="4.7717">
        <ele>301.99</ele>
        <time>2022-05-06T06:50:13Z</time>
      </trkpt>
      <trkpt lat="45.29815" lon="4.77156">
        <ele>300.55</ele>
        <time>2022-05-06T06:50:26Z</time>
      </trkpt>
      <trkpt lat="45.2981" lon="4.77135">
        <ele>297.18</ele>
        <time>2022-05-06T06:50:42Z</time>
      </trkpt>
      <trkpt lat="45.2981" lon="4.77128">
        <ele>295.74</ele>
        <time>2022-05-06T06:50:47Z</time>
      </trkpt>
      <trkpt lat="45.29811" lon="4.77119">
        <ele>294.3</ele>
        <time>2022-05-06T06:50:54Z</time>
      </trkpt>
      <trkpt lat="45.29815" lon="4.77105">
        <ele>293.82</ele>
        <time>2022-05-06T06:51:03Z</time>
      </trkpt>
      <trkpt lat="45.29815" lon="4.77091">
        <ele>292.38</ele>
        <time>2022-05-06T06:51:11Z</time>
      </trkpt>
      <trkpt lat="45.29816" lon="4.77059">
        <ele>290.94</ele>
        <time>2022-05-06T06:51:28Z</time>
      </trkpt>
      <trkpt lat="45.29823" lon="4.77043">
        <ele>287.57</ele>
        <time>2022-05-06T06:51:41Z</time>
      </trkpt>
      <trkpt lat="45.29823" lon="4.77037">
        <ele>287.09</ele>
        <time>2022-05-06T06:51:45Z</time>
      </trkpt>
      <trkpt lat="45.29826" lon="4.77017">
        <ele>284.21</ele>
        <time>2022-05-06T06:52:00Z</time>
      </trkpt>
      <trkpt lat="45.2982" lon="4.77015">
        <ele>283.25</ele>
        <time>2022-05-06T06:52:13Z</time>
      </trkpt>
      <trkpt lat="45.29813" lon="4.77025">
        <ele>279.88</ele>
        <time>2022-05-06T06:52:25Z</time>
      </trkpt>
      <trkpt lat="45.29807" lon="4.77035">
        <ele>277</ele>
        <time>2022-05-06T06:52:41Z</time>
      </trkpt>
      <trkpt lat="45.29787" lon="4.77041">
        <ele>274.11</ele>
        <time>2022-05-06T06:52:55Z</time>
      </trkpt>
      <trkpt lat="45.29782" lon="4.77033">
        <ele>271.23</ele>
        <time>2022-05-06T06:53:11Z</time>
      </trkpt>
      <trkpt lat="45.29777" lon="4.77015">
        <ele>271.23</ele>
        <time>2022-05-06T06:53:24Z</time>
      </trkpt>
      <trkpt lat="45.29767" lon="4.77019">
        <ele>270.75</ele>
        <time>2022-05-06T06:53:45Z</time>
      </trkpt>
      <trkpt lat="45.29766" lon="4.77027">
        <ele>271.23</ele>
        <time>2022-05-06T06:54:11Z</time>
      </trkpt>
      <trkpt lat="45.29762" lon="4.77015">
        <ele>271.71</ele>
        <time>2022-05-06T06:54:29Z</time>
      </trkpt>
      <trkpt lat="45.29748" lon="4.77012">
        <ele>274.59</ele>
        <time>2022-05-06T06:54:47Z</time>
      </trkpt>
      <trkpt lat="45.29746" lon="4.77013">
        <ele>275.07</ele>
        <time>2022-05-06T06:54:50Z</time>
      </trkpt>
      <trkpt lat="45.29741" lon="4.77033">
        <ele>277.96</ele>
        <time>2022-05-06T06:55:04Z</time>
      </trkpt>
      <trkpt lat="45.29734" lon="4.77048">
        <ele>279.4</ele>
        <time>2022-05-06T06:55:19Z</time>
      </trkpt>
      <trkpt lat="45.29733" lon="4.77048">
        <ele>279.4</ele>
        <time>2022-05-06T06:55:20Z</time>
      </trkpt>
      <trkpt lat="45.29729" lon="4.77054">
        <ele>279.88</ele>
        <time>2022-05-06T06:55:25Z</time>
      </trkpt>
      <trkpt lat="45.29719" lon="4.77069">
        <ele>282.28</ele>
        <time>2022-05-06T06:55:40Z</time>
      </trkpt>
      <trkpt lat="45.2971" lon="4.7708">
        <ele>285.17</ele>
        <time>2022-05-06T06:55:53Z</time>
      </trkpt>
      <trkpt lat="45.29694" lon="4.77091">
        <ele>287.57</ele>
        <time>2022-05-06T06:56:09Z</time>
      </trkpt>
      <trkpt lat="45.2968" lon="4.77104">
        <ele>289.97</ele>
        <time>2022-05-06T06:56:23Z</time>
      </trkpt>
      <trkpt lat="45.2967" lon="4.77126">
        <ele>290.94</ele>
        <time>2022-05-06T06:56:38Z</time>
      </trkpt>
      <trkpt lat="45.29669" lon="4.77133">
        <ele>292.38</ele>
        <time>2022-05-06T06:56:53Z</time>
      </trkpt>
      <trkpt lat="45.29676" lon="4.77141">
        <ele>294.78</ele>
        <time>2022-05-06T06:57:10Z</time>
      </trkpt>
      <trkpt lat="45.29687" lon="4.77156">
        <ele>297.67</ele>
        <time>2022-05-06T06:57:26Z</time>
      </trkpt>
      <trkpt lat="45.29691" lon="4.77172">
        <ele>301.03</ele>
        <time>2022-05-06T06:57:41Z</time>
      </trkpt>
      <trkpt lat="45.29692" lon="4.77189">
        <ele>301.99</ele>
        <time>2022-05-06T06:57:56Z</time>
      </trkpt>
      <trkpt lat="45.2969" lon="4.77206">
        <ele>304.39</ele>
        <time>2022-05-06T06:58:10Z</time>
      </trkpt>
      <trkpt lat="45.29689" lon="4.77226">
        <ele>307.76</ele>
        <time>2022-05-06T06:58:23Z</time>
      </trkpt>
      <trkpt lat="45.29687" lon="4.77231">
        <ele>308.72</ele>
        <time>2022-05-06T06:58:27Z</time>
      </trkpt>
      <trkpt lat="45.29685" lon="4.77233">
        <ele>310.16</ele>
        <time>2022-05-06T06:58:30Z</time>
      </trkpt>
      <trkpt lat="45.29676" lon="4.77225">
        <ele>311.12</ele>
        <time>2022-05-06T06:58:46Z</time>
      </trkpt>
      <trkpt lat="45.29664" lon="4.77219">
        <ele>314.01</ele>
        <time>2022-05-06T06:59:03Z</time>
      </trkpt>
      <trkpt lat="45.29645" lon="4.77217">
        <ele>316.41</ele>
        <time>2022-05-06T06:59:19Z</time>
      </trkpt>
      <trkpt lat="45.2963" lon="4.77212">
        <ele>319.3</ele>
        <time>2022-05-06T06:59:37Z</time>
      </trkpt>
      <trkpt lat="45.29613" lon="4.77214">
        <ele>320.74</ele>
        <time>2022-05-06T06:59:52Z</time>
      </trkpt>
      <trkpt lat="45.29605" lon="4.77215">
        <ele>322.18</ele>
        <time>2022-05-06T07:00:08Z</time>
      </trkpt>
      <trkpt lat="45.29597" lon="4.77222">
        <ele>323.14</ele>
        <time>2022-05-06T07:00:21Z</time>
      </trkpt>
      <trkpt lat="45.29583" lon="4.77224">
        <ele>326.02</ele>
        <time>2022-05-06T07:00:38Z</time>
      </trkpt>
      <trkpt lat="45.29567" lon="4.77222">
        <ele>328.91</ele>
        <time>2022-05-06T07:00:54Z</time>
      </trkpt>
      <trkpt lat="45.29554" lon="4.77219">
        <ele>332.27</ele>
        <time>2022-05-06T07:01:09Z</time>
      </trkpt>
      <trkpt lat="45.29542" lon="4.77207">
        <ele>335.16</ele>
        <time>2022-05-06T07:01:25Z</time>
      </trkpt>
      <trkpt lat="45.29529" lon="4.77195">
        <ele>337.56</ele>
        <time>2022-05-06T07:01:40Z</time>
      </trkpt>
      <trkpt lat="45.29511" lon="4.7719">
        <ele>339.96</ele>
        <time>2022-05-06T07:01:55Z</time>
      </trkpt>
      <trkpt lat="45.29492" lon="4.77182">
        <ele>341.89</ele>
        <time>2022-05-06T07:02:12Z</time>
      </trkpt>
      <trkpt lat="45.29478" lon="4.77178">
        <ele>345.25</ele>
        <time>2022-05-06T07:02:25Z</time>
      </trkpt>
      <trkpt lat="45.29459" lon="4.77172">
        <ele>346.69</ele>
        <time>2022-05-06T07:02:42Z</time>
      </trkpt>
      <trkpt lat="45.29443" lon="4.7716">
        <ele>349.1</ele>
        <time>2022-05-06T07:02:59Z</time>
      </trkpt>
      <trkpt lat="45.29441" lon="4.77157">
        <ele>349.58</ele>
        <time>2022-05-06T07:03:07Z</time>
      </trkpt>
      <trkpt lat="45.29437" lon="4.77142">
        <ele>350.06</ele>
        <time>2022-05-06T07:03:17Z</time>
      </trkpt>
      <trkpt lat="45.29437" lon="4.77133">
        <ele>350.54</ele>
        <time>2022-05-06T07:03:22Z</time>
      </trkpt>
      <trkpt lat="45.29433" lon="4.7712">
        <ele>351.98</ele>
        <time>2022-05-06T07:03:30Z</time>
      </trkpt>
      <trkpt lat="45.29414" lon="4.77101">
        <ele>352.94</ele>
        <time>2022-05-06T07:03:49Z</time>
      </trkpt>
      <trkpt lat="45.29395" lon="4.7709">
        <ele>353.9</ele>
        <time>2022-05-06T07:04:06Z</time>
      </trkpt>
      <trkpt lat="45.29376" lon="4.77077">
        <ele>354.38</ele>
        <time>2022-05-06T07:04:24Z</time>
      </trkpt>
      <trkpt lat="45.29355" lon="4.77064">
        <ele>354.86</ele>
        <time>2022-05-06T07:04:41Z</time>
      </trkpt>
      <trkpt lat="45.29341" lon="4.77051">
        <ele>355.83</ele>
        <time>2022-05-06T07:04:54Z</time>
      </trkpt>
      <trkpt lat="45.29322" lon="4.77027">
        <ele>357.75</ele>
        <time>2022-05-06T07:05:14Z</time>
      </trkpt>
      <trkpt lat="45.29306" lon="4.77007">
        <ele>357.75</ele>
        <time>2022-05-06T07:05:31Z</time>
      </trkpt>
      <trkpt lat="45.29287" lon="4.76987">
        <ele>357.27</ele>
        <time>2022-05-06T07:05:49Z</time>
      </trkpt>
      <trkpt lat="45.2927" lon="4.76967">
        <ele>357.75</ele>
        <time>2022-05-06T07:06:06Z</time>
      </trkpt>
      <trkpt lat="45.29249" lon="4.76944">
        <ele>357.75</ele>
        <time>2022-05-06T07:06:26Z</time>
      </trkpt>
      <trkpt lat="45.29232" lon="4.76928">
        <ele>358.23</ele>
        <time>2022-05-06T07:06:43Z</time>
      </trkpt>
      <trkpt lat="45.29212" lon="4.76913">
        <ele>358.23</ele>
        <time>2022-05-06T07:06:59Z</time>
      </trkpt>
      <trkpt lat="45.29209" lon="4.76907">
        <ele>358.23</ele>
        <time>2022-05-06T07:07:03Z</time>
      </trkpt>
      <trkpt lat="45.29181" lon="4.76883">
        <ele>359.19</ele>
        <time>2022-05-06T07:07:26Z</time>
      </trkpt>
      <trkpt lat="45.2916" lon="4.76869">
        <ele>359.19</ele>
        <time>2022-05-06T07:07:45Z</time>
      </trkpt>
      <trkpt lat="45.29139" lon="4.76853">
        <ele>360.15</ele>
        <time>2022-05-06T07:08:05Z</time>
      </trkpt>
      <trkpt lat="45.29121" lon="4.76842">
        <ele>361.11</ele>
        <time>2022-05-06T07:08:22Z</time>
      </trkpt>
      <trkpt lat="45.29098" lon="4.76828">
        <ele>362.07</ele>
        <time>2022-05-06T07:08:40Z</time>
      </trkpt>
      <trkpt lat="45.29076" lon="4.76811">
        <ele>363.04</ele>
        <time>2022-05-06T07:08:59Z</time>
      </trkpt>
      <trkpt lat="45.29059" lon="4.76791">
        <ele>364</ele>
        <time>2022-05-06T07:09:16Z</time>
      </trkpt>
      <trkpt lat="45.2904" lon="4.76773">
        <ele>364.48</ele>
        <time>2022-05-06T07:09:34Z</time>
      </trkpt>
      <trkpt lat="45.29019" lon="4.76754">
        <ele>364.96</ele>
        <time>2022-05-06T07:09:52Z</time>
      </trkpt>
      <trkpt lat="45.29" lon="4.76739">
        <ele>365.44</ele>
        <time>2022-05-06T07:10:10Z</time>
      </trkpt>
      <trkpt lat="45.28983" lon="4.76724">
        <ele>365.92</ele>
        <time>2022-05-06T07:10:27Z</time>
      </trkpt>
      <trkpt lat="45.28964" lon="4.76708">
        <ele>366.4</ele>
        <time>2022-05-06T07:10:44Z</time>
      </trkpt>
      <trkpt lat="45.2896" lon="4.76706">
        <ele>366.4</ele>
        <time>2022-05-06T07:10:47Z</time>
      </trkpt>
      <trkpt lat="45.28942" lon="4.76686">
        <ele>367.36</ele>
        <time>2022-05-06T07:11:05Z</time>
      </trkpt>
      <trkpt lat="45.28927" lon="4.76672">
        <ele>370.24</ele>
        <time>2022-05-06T07:11:20Z</time>
      </trkpt>
      <trkpt lat="45.28909" lon="4.76654">
        <ele>369.76</ele>
        <time>2022-05-06T07:11:37Z</time>
      </trkpt>
      <trkpt lat="45.28893" lon="4.76633">
        <ele>369.76</ele>
        <time>2022-05-06T07:11:55Z</time>
      </trkpt>
      <trkpt lat="45.28876" lon="4.76619">
        <ele>369.28</ele>
        <time>2022-05-06T07:12:10Z</time>
      </trkpt>
      <trkpt lat="45.2887" lon="4.76617">
        <ele>367.84</ele>
        <time>2022-05-06T07:12:14Z</time>
      </trkpt>
      <trkpt lat="45.28856" lon="4.76609">
        <ele>371.21</ele>
        <time>2022-05-06T07:12:27Z</time>
      </trkpt>
      <trkpt lat="45.2884" lon="4.76602">
        <ele>370.73</ele>
        <time>2022-05-06T07:12:41Z</time>
      </trkpt>
      <trkpt lat="45.28819" lon="4.76588">
        <ele>371.69</ele>
        <time>2022-05-06T07:12:59Z</time>
      </trkpt>
      <trkpt lat="45.28801" lon="4.76577">
        <ele>371.69</ele>
        <time>2022-05-06T07:13:14Z</time>
      </trkpt>
      <trkpt lat="45.28793" lon="4.76572">
        <ele>373.13</ele>
        <time>2022-05-06T07:13:22Z</time>
      </trkpt>
      <trkpt lat="45.28775" lon="4.76552">
        <ele>374.09</ele>
        <time>2022-05-06T07:13:38Z</time>
      </trkpt>
      <trkpt lat="45.28756" lon="4.7653">
        <ele>375.53</ele>
        <time>2022-05-06T07:13:56Z</time>
      </trkpt>
      <trkpt lat="45.2874" lon="4.76505">
        <ele>375.53</ele>
        <time>2022-05-06T07:14:14Z</time>
      </trkpt>
      <trkpt lat="45.28729" lon="4.76481">
        <ele>375.05</ele>
        <time>2022-05-06T07:14:30Z</time>
      </trkpt>
      <trkpt lat="45.28725" lon="4.76472">
        <ele>375.53</ele>
        <time>2022-05-06T07:14:37Z</time>
      </trkpt>
      <trkpt lat="45.28714" lon="4.76445">
        <ele>375.05</ele>
        <time>2022-05-06T07:14:55Z</time>
      </trkpt>
      <trkpt lat="45.28703" lon="4.76427">
        <ele>374.57</ele>
        <time>2022-05-06T07:15:08Z</time>
      </trkpt>
      <trkpt lat="45.28697" lon="4.76418">
        <ele>375.05</ele>
        <time>2022-05-06T07:15:14Z</time>
      </trkpt>
      <trkpt lat="45.28678" lon="4.76396">
        <ele>374.09</ele>
        <time>2022-05-06T07:15:31Z</time>
      </trkpt>
      <trkpt lat="45.28674" lon="4.76393">
        <ele>374.57</ele>
        <time>2022-05-06T07:15:34Z</time>
      </trkpt>
      <trkpt lat="45.28661" lon="4.76382">
        <ele>373.61</ele>
        <time>2022-05-06T07:15:47Z</time>
      </trkpt>
      <trkpt lat="45.28643" lon="4.76363">
        <ele>373.13</ele>
        <time>2022-05-06T07:16:06Z</time>
      </trkpt>
      <trkpt lat="45.28625" lon="4.76351">
        <ele>371.69</ele>
        <time>2022-05-06T07:16:21Z</time>
      </trkpt>
      <trkpt lat="45.28603" lon="4.76337">
        <ele>371.21</ele>
        <time>2022-05-06T07:16:37Z</time>
      </trkpt>
      <trkpt lat="45.28587" lon="4.76326">
        <ele>371.21</ele>
        <time>2022-05-06T07:16:52Z</time>
      </trkpt>
      <trkpt lat="45.2858" lon="4.76321">
        <ele>371.69</ele>
        <time>2022-05-06T07:16:57Z</time>
      </trkpt>
      <trkpt lat="45.28557" lon="4.76302">
        <ele>370.73</ele>
        <time>2022-05-06T07:17:18Z</time>
      </trkpt>
      <trkpt lat="45.28537" lon="4.76287">
        <ele>371.21</ele>
        <time>2022-05-06T07:17:34Z</time>
      </trkpt>
      <trkpt lat="45.28511" lon="4.76265">
        <ele>370.73</ele>
        <time>2022-05-06T07:17:56Z</time>
      </trkpt>
      <trkpt lat="45.28487" lon="4.76252">
        <ele>371.21</ele>
        <time>2022-05-06T07:18:16Z</time>
      </trkpt>
      <trkpt lat="45.28461" lon="4.76241">
        <ele>371.69</ele>
        <time>2022-05-06T07:18:36Z</time>
      </trkpt>
      <trkpt lat="45.28437" lon="4.76227">
        <ele>372.17</ele>
        <time>2022-05-06T07:18:55Z</time>
      </trkpt>
      <trkpt lat="45.28414" lon="4.76216">
        <ele>373.13</ele>
        <time>2022-05-06T07:19:15Z</time>
      </trkpt>
      <trkpt lat="45.28394" lon="4.76206">
        <ele>373.61</ele>
        <time>2022-05-06T07:19:32Z</time>
      </trkpt>
      <trkpt lat="45.2838" lon="4.76197">
        <ele>374.57</ele>
        <time>2022-05-06T07:19:49Z</time>
      </trkpt>
      <trkpt lat="45.28362" lon="4.76195">
        <ele>375.05</ele>
        <time>2022-05-06T07:20:06Z</time>
      </trkpt>
      <trkpt lat="45.28339" lon="4.76186">
        <ele>376.49</ele>
        <time>2022-05-06T07:20:26Z</time>
      </trkpt>
      <trkpt lat="45.2832" lon="4.76171">
        <ele>376.97</ele>
        <time>2022-05-06T07:20:45Z</time>
      </trkpt>
      <trkpt lat="45.28314" lon="4.76138">
        <ele>376.49</ele>
        <time>2022-05-06T07:21:05Z</time>
      </trkpt>
      <trkpt lat="45.28309" lon="4.76105">
        <ele>376.01</ele>
        <time>2022-05-06T07:21:23Z</time>
      </trkpt>
      <trkpt lat="45.28306" lon="4.76075">
        <ele>376.01</ele>
        <time>2022-05-06T07:21:40Z</time>
      </trkpt>
      <trkpt lat="45.28299" lon="4.76049">
        <ele>376.01</ele>
        <time>2022-05-06T07:21:56Z</time>
      </trkpt>
      <trkpt lat="45.28297" lon="4.76018">
        <ele>376.97</ele>
        <time>2022-05-06T07:22:15Z</time>
      </trkpt>
      <trkpt lat="45.28296" lon="4.76008">
        <ele>377.45</ele>
        <time>2022-05-06T07:22:21Z</time>
      </trkpt>
      <trkpt lat="45.28297" lon="4.76003">
        <ele>377.45</ele>
        <time>2022-05-06T07:22:24Z</time>
      </trkpt>
      <trkpt lat="45.28298" lon="4.75994">
        <ele>376.97</ele>
        <time>2022-05-06T07:22:29Z</time>
      </trkpt>
      <trkpt lat="45.28299" lon="4.75984">
        <ele>377.94</ele>
        <time>2022-05-06T07:22:34Z</time>
      </trkpt>
      <trkpt lat="45.28301" lon="4.75977">
        <ele>377.94</ele>
        <time>2022-05-06T07:22:38Z</time>
      </trkpt>
      <trkpt lat="45.28302" lon="4.75953">
        <ele>378.9</ele>
        <time>2022-05-06T07:22:55Z</time>
      </trkpt>
      <trkpt lat="45.28303" lon="4.75949">
        <ele>378.9</ele>
        <time>2022-05-06T07:22:57Z</time>
      </trkpt>
      <trkpt lat="45.28303" lon="4.75924">
        <ele>376.97</ele>
        <time>2022-05-06T07:23:12Z</time>
      </trkpt>
      <trkpt lat="45.28314" lon="4.75905">
        <ele>376.49</ele>
        <time>2022-05-06T07:23:27Z</time>
      </trkpt>
      <trkpt lat="45.28333" lon="4.75891">
        <ele>375.53</ele>
        <time>2022-05-06T07:23:44Z</time>
      </trkpt>
      <trkpt lat="45.28357" lon="4.75877">
        <ele>373.61</ele>
        <time>2022-05-06T07:24:03Z</time>
      </trkpt>
      <trkpt lat="45.2838" lon="4.75879">
        <ele>373.13</ele>
        <time>2022-05-06T07:24:21Z</time>
      </trkpt>
      <trkpt lat="45.28401" lon="4.75885">
        <ele>372.65</ele>
        <time>2022-05-06T07:24:39Z</time>
      </trkpt>
      <trkpt lat="45.2842" lon="4.759">
        <ele>371.21</ele>
        <time>2022-05-06T07:24:57Z</time>
      </trkpt>
      <trkpt lat="45.28438" lon="4.75916">
        <ele>371.69</ele>
        <time>2022-05-06T07:25:15Z</time>
      </trkpt>
      <trkpt lat="45.2846" lon="4.75928">
        <ele>372.17</ele>
        <time>2022-05-06T07:25:34Z</time>
      </trkpt>
      <trkpt lat="45.28482" lon="4.7594">
        <ele>371.21</ele>
        <time>2022-05-06T07:25:51Z</time>
      </trkpt>
      <trkpt lat="45.28497" lon="4.75946">
        <ele>371.69</ele>
        <time>2022-05-06T07:26:03Z</time>
      </trkpt>
      <trkpt lat="45.28513" lon="4.75956">
        <ele>370.24</ele>
        <time>2022-05-06T07:26:17Z</time>
      </trkpt>
      <trkpt lat="45.28534" lon="4.75972">
        <ele>369.28</ele>
        <time>2022-05-06T07:26:35Z</time>
      </trkpt>
      <trkpt lat="45.28557" lon="4.75988">
        <ele>369.28</ele>
        <time>2022-05-06T07:26:53Z</time>
      </trkpt>
      <trkpt lat="45.28581" lon="4.76">
        <ele>367.36</ele>
        <time>2022-05-06T07:27:11Z</time>
      </trkpt>
      <trkpt lat="45.28605" lon="4.76013">
        <ele>365.44</ele>
        <time>2022-05-06T07:27:30Z</time>
      </trkpt>
      <trkpt lat="45.28631" lon="4.76025">
        <ele>365.44</ele>
        <time>2022-05-06T07:27:50Z</time>
      </trkpt>
      <trkpt lat="45.28655" lon="4.76039">
        <ele>363.52</ele>
        <time>2022-05-06T07:28:10Z</time>
      </trkpt>
      <trkpt lat="45.28681" lon="4.76052">
        <ele>362.55</ele>
        <time>2022-05-06T07:28:31Z</time>
      </trkpt>
      <trkpt lat="45.28702" lon="4.76059">
        <ele>361.59</ele>
        <time>2022-05-06T07:28:48Z</time>
      </trkpt>
      <trkpt lat="45.28728" lon="4.76065">
        <ele>359.67</ele>
        <time>2022-05-06T07:29:08Z</time>
      </trkpt>
      <trkpt lat="45.28748" lon="4.76069">
        <ele>359.67</ele>
        <time>2022-05-06T07:29:24Z</time>
      </trkpt>
      <trkpt lat="45.28766" lon="4.76066">
        <ele>360.15</ele>
        <time>2022-05-06T07:29:39Z</time>
      </trkpt>
      <trkpt lat="45.28778" lon="4.76045">
        <ele>358.23</ele>
        <time>2022-05-06T07:29:55Z</time>
      </trkpt>
      <trkpt lat="45.28795" lon="4.7602">
        <ele>354.38</ele>
        <time>2022-05-06T07:30:12Z</time>
      </trkpt>
      <trkpt lat="45.28796" lon="4.76019">
        <ele>354.86</ele>
        <time>2022-05-06T07:30:13Z</time>
      </trkpt>
      <trkpt lat="45.28816" lon="4.76001">
        <ele>352.94</ele>
        <time>2022-05-06T07:30:33Z</time>
      </trkpt>
      <trkpt lat="45.28828" lon="4.76">
        <ele>351.98</ele>
        <time>2022-05-06T07:30:42Z</time>
      </trkpt>
      <trkpt lat="45.28855" lon="4.75998">
        <ele>350.54</ele>
        <time>2022-05-06T07:31:03Z</time>
      </trkpt>
      <trkpt lat="45.28872" lon="4.76">
        <ele>351.02</ele>
        <time>2022-05-06T07:31:17Z</time>
      </trkpt>
      <trkpt lat="45.28886" lon="4.75996">
        <ele>350.54</ele>
        <time>2022-05-06T07:31:33Z</time>
      </trkpt>
      <trkpt lat="45.28906" lon="4.7599">
        <ele>350.06</ele>
        <time>2022-05-06T07:31:50Z</time>
      </trkpt>
      <trkpt lat="45.28922" lon="4.75981">
        <ele>348.62</ele>
        <time>2022-05-06T07:32:04Z</time>
      </trkpt>
      <trkpt lat="45.28937" lon="4.75965">
        <ele>345.25</ele>
        <time>2022-05-06T07:32:18Z</time>
      </trkpt>
      <trkpt lat="45.28939" lon="4.75962">
        <ele>344.77</ele>
        <time>2022-05-06T07:32:20Z</time>
      </trkpt>
      <trkpt lat="45.28945" lon="4.75936">
        <ele>342.37</ele>
        <time>2022-05-06T07:32:33Z</time>
      </trkpt>
      <trkpt lat="45.28954" lon="4.75913">
        <ele>339.48</ele>
        <time>2022-05-06T07:32:48Z</time>
      </trkpt>
      <trkpt lat="45.28957" lon="4.75905">
        <ele>336.12</ele>
        <time>2022-05-06T07:32:58Z</time>
      </trkpt>
      <trkpt lat="45.28962" lon="4.75899">
        <ele>333.71</ele>
        <time>2022-05-06T07:33:09Z</time>
      </trkpt>
      <trkpt lat="45.28975" lon="4.759">
        <ele>330.83</ele>
        <time>2022-05-06T07:33:23Z</time>
      </trkpt>
      <trkpt lat="45.28992" lon="4.75901">
        <ele>328.91</ele>
        <time>2022-05-06T07:33:35Z</time>
      </trkpt>
      <trkpt lat="45.29017" lon="4.75899">
        <ele>327.95</ele>
        <time>2022-05-06T07:33:48Z</time>
      </trkpt>
      <trkpt lat="45.29035" lon="4.75901">
        <ele>324.58</ele>
        <time>2022-05-06T07:34:01Z</time>
      </trkpt>
      <trkpt lat="45.29043" lon="4.75906">
        <ele>322.18</ele>
        <time>2022-05-06T07:34:16Z</time>
      </trkpt>
      <trkpt lat="45.29052" lon="4.75911">
        <ele>319.3</ele>
        <time>2022-05-06T07:34:29Z</time>
      </trkpt>
      <trkpt lat="45.29083" lon="4.75914">
        <ele>317.37</ele>
        <time>2022-05-06T07:34:44Z</time>
      </trkpt>
      <trkpt lat="45.29105" lon="4.75909">
        <ele>315.93</ele>
        <time>2022-05-06T07:34:58Z</time>
      </trkpt>
      <trkpt lat="45.29123" lon="4.75905">
        <ele>315.45</ele>
        <time>2022-05-06T07:35:12Z</time>
      </trkpt>
      <trkpt lat="45.29136" lon="4.75905">
        <ele>314.97</ele>
        <time>2022-05-06T07:35:27Z</time>
      </trkpt>
      <trkpt lat="45.29134" lon="4.75906">
        <ele>314.01</ele>
        <time>2022-05-06T07:35:43Z</time>
      </trkpt>
      <trkpt lat="45.2913" lon="4.75911">
        <ele>311.6</ele>
        <time>2022-05-06T07:35:53Z</time>
      </trkpt>
      <trkpt lat="45.2913" lon="4.75912">
        <ele>311.12</ele>
        <time>2022-05-06T07:35:54Z</time>
      </trkpt>
      <trkpt lat="45.29131" lon="4.75913">
        <ele>311.12</ele>
        <time>2022-05-06T07:35:55Z</time>
      </trkpt>
      <trkpt lat="45.29141" lon="4.75915">
        <ele>310.16</ele>
        <time>2022-05-06T07:36:09Z</time>
      </trkpt>
      <trkpt lat="45.29142" lon="4.75915">
        <ele>310.16</ele>
        <time>2022-05-06T07:36:11Z</time>
      </trkpt>
      <trkpt lat="45.29168" lon="4.75917">
        <ele>312.09</ele>
        <time>2022-05-06T07:36:25Z</time>
      </trkpt>
      <trkpt lat="45.29199" lon="4.7592">
        <ele>314.01</ele>
        <time>2022-05-06T07:36:43Z</time>
      </trkpt>
      <trkpt lat="45.29234" lon="4.75937">
        <ele>315.45</ele>
        <time>2022-05-06T07:37:00Z</time>
      </trkpt>
      <trkpt lat="45.29252" lon="4.75954">
        <ele>317.37</ele>
        <time>2022-05-06T07:37:16Z</time>
      </trkpt>
      <trkpt lat="45.29265" lon="4.75966">
        <ele>318.81</ele>
        <time>2022-05-06T07:37:30Z</time>
      </trkpt>
      <trkpt lat="45.29283" lon="4.75976">
        <ele>320.74</ele>
        <time>2022-05-06T07:37:46Z</time>
      </trkpt>
      <trkpt lat="45.29288" lon="4.75978">
        <ele>321.7</ele>
        <time>2022-05-06T07:37:50Z</time>
      </trkpt>
      <trkpt lat="45.29302" lon="4.7598">
        <ele>323.62</ele>
        <time>2022-05-06T07:38:04Z</time>
      </trkpt>
      <trkpt lat="45.29319" lon="4.75983">
        <ele>326.5</ele>
        <time>2022-05-06T07:38:19Z</time>
      </trkpt>
      <trkpt lat="45.29338" lon="4.75981">
        <ele>328.91</ele>
        <time>2022-05-06T07:38:36Z</time>
      </trkpt>
      <trkpt lat="45.29359" lon="4.75973">
        <ele>331.79</ele>
        <time>2022-05-06T07:38:57Z</time>
      </trkpt>
      <trkpt lat="45.29375" lon="4.75965">
        <ele>334.68</ele>
        <time>2022-05-06T07:39:13Z</time>
      </trkpt>
      <trkpt lat="45.29394" lon="4.75958">
        <ele>337.08</ele>
        <time>2022-05-06T07:39:32Z</time>
      </trkpt>
      <trkpt lat="45.29413" lon="4.75955">
        <ele>338.52</ele>
        <time>2022-05-06T07:39:48Z</time>
      </trkpt>
      <trkpt lat="45.29433" lon="4.75952">
        <ele>339.96</ele>
        <time>2022-05-06T07:40:04Z</time>
      </trkpt>
      <trkpt lat="45.29443" lon="4.75951">
        <ele>340.44</ele>
        <time>2022-05-06T07:40:11Z</time>
      </trkpt>
      <trkpt lat="45.29451" lon="4.75949">
        <ele>341.41</ele>
        <time>2022-05-06T07:40:17Z</time>
      </trkpt>
      <trkpt lat="45.29464" lon="4.75951">
        <ele>342.37</ele>
        <time>2022-05-06T07:40:31Z</time>
      </trkpt>
      <trkpt lat="45.29468" lon="4.75956">
        <ele>343.33</ele>
        <time>2022-05-06T07:40:43Z</time>
      </trkpt>
      <trkpt lat="45.29477" lon="4.75968">
        <ele>342.85</ele>
        <time>2022-05-06T07:40:57Z</time>
      </trkpt>
      <trkpt lat="45.29502" lon="4.75982">
        <ele>343.33</ele>
        <time>2022-05-06T07:41:18Z</time>
      </trkpt>
      <trkpt lat="45.29522" lon="4.75997">
        <ele>344.77</ele>
        <time>2022-05-06T07:41:36Z</time>
      </trkpt>
      <trkpt lat="45.29542" lon="4.76005">
        <ele>345.25</ele>
        <time>2022-05-06T07:41:51Z</time>
      </trkpt>
      <trkpt lat="45.29558" lon="4.75995">
        <ele>346.69</ele>
        <time>2022-05-06T07:42:05Z</time>
      </trkpt>
      <trkpt lat="45.29565" lon="4.75991">
        <ele>347.17</ele>
        <time>2022-05-06T07:42:11Z</time>
      </trkpt>
      <trkpt lat="45.29574" lon="4.75983">
        <ele>347.65</ele>
        <time>2022-05-06T07:42:19Z</time>
      </trkpt>
      <trkpt lat="45.29594" lon="4.75973">
        <ele>346.69</ele>
        <time>2022-05-06T07:42:34Z</time>
      </trkpt>
      <trkpt lat="45.29608" lon="4.75966">
        <ele>345.73</ele>
        <time>2022-05-06T07:42:48Z</time>
      </trkpt>
      <trkpt lat="45.29628" lon="4.75956">
        <ele>343.81</ele>
        <time>2022-05-06T07:43:04Z</time>
      </trkpt>
      <trkpt lat="45.29647" lon="4.75946">
        <ele>341.89</ele>
        <time>2022-05-06T07:43:20Z</time>
      </trkpt>
      <trkpt lat="45.29672" lon="4.75933">
        <ele>340.92</ele>
        <time>2022-05-06T07:43:39Z</time>
      </trkpt>
      <trkpt lat="45.2969" lon="4.75926">
        <ele>341.41</ele>
        <time>2022-05-06T07:43:54Z</time>
      </trkpt>
      <trkpt lat="45.29693" lon="4.75926">
        <ele>340.92</ele>
        <time>2022-05-06T07:43:56Z</time>
      </trkpt>
      <trkpt lat="45.29707" lon="4.75919">
        <ele>338.04</ele>
        <time>2022-05-06T07:44:11Z</time>
      </trkpt>
      <trkpt lat="45.29716" lon="4.75903">
        <ele>336.12</ele>
        <time>2022-05-06T07:44:24Z</time>
      </trkpt>
      <trkpt lat="45.29718" lon="4.75867">
        <ele>334.68</ele>
        <time>2022-05-06T07:44:42Z</time>
      </trkpt>
      <trkpt lat="45.29714" lon="4.7584">
        <ele>333.23</ele>
        <time>2022-05-06T07:44:55Z</time>
      </trkpt>
      <trkpt lat="45.29713" lon="4.75836">
        <ele>332.75</ele>
        <time>2022-05-06T07:44:57Z</time>
      </trkpt>
      <trkpt lat="45.2971" lon="4.75819">
        <ele>332.27</ele>
        <time>2022-05-06T07:45:07Z</time>
      </trkpt>
      <trkpt lat="45.29698" lon="4.75794">
        <ele>331.31</ele>
        <time>2022-05-06T07:45:22Z</time>
      </trkpt>
      <trkpt lat="45.29691" lon="4.75777">
        <ele>329.87</ele>
        <time>2022-05-06T07:45:35Z</time>
      </trkpt>
      <trkpt lat="45.29682" lon="4.75761">
        <ele>327.47</ele>
        <time>2022-05-06T07:45:49Z</time>
      </trkpt>
      <trkpt lat="45.29669" lon="4.75742">
        <ele>326.02</ele>
        <time>2022-05-06T07:46:03Z</time>
      </trkpt>
      <trkpt lat="45.29656" lon="4.75726">
        <ele>324.58</ele>
        <time>2022-05-06T07:46:18Z</time>
      </trkpt>
      <trkpt lat="45.29649" lon="4.75712">
        <ele>324.58</ele>
        <time>2022-05-06T07:46:28Z</time>
      </trkpt>
      <trkpt lat="45.29636" lon="4.75682">
        <ele>323.14</ele>
        <time>2022-05-06T07:46:45Z</time>
      </trkpt>
      <trkpt lat="45.29626" lon="4.75661">
        <ele>320.74</ele>
        <time>2022-05-06T07:46:59Z</time>
      </trkpt>
      <trkpt lat="45.29622" lon="4.75647">
        <ele>321.22</ele>
        <time>2022-05-06T07:47:15Z</time>
      </trkpt>
      <trkpt lat="45.29616" lon="4.75632">
        <ele>320.74</ele>
        <time>2022-05-06T07:47:38Z</time>
      </trkpt>
      <trkpt lat="45.29619" lon="4.7563">
        <ele>321.22</ele>
        <time>2022-05-06T07:48:07Z</time>
      </trkpt>
      <trkpt lat="45.29622" lon="4.75649">
        <ele>321.22</ele>
        <time>2022-05-06T07:48:35Z</time>
      </trkpt>
      <trkpt lat="45.29622" lon="4.75643">
        <ele>321.22</ele>
        <time>2022-05-06T07:48:49Z</time>
      </trkpt>
      <trkpt lat="45.29621" lon="4.75638">
        <ele>321.7</ele>
        <time>2022-05-06T07:49:03Z</time>
      </trkpt>
      <trkpt lat="45.29618" lon="4.75635">
        <ele>322.18</ele>
        <time>2022-05-06T07:49:22Z</time>
      </trkpt>
      <trkpt lat="45.29613" lon="4.75619">
        <ele>321.22</ele>
        <time>2022-05-06T07:49:36Z</time>
      </trkpt>
      <trkpt lat="45.29612" lon="4.75594">
        <ele>321.22</ele>
        <time>2022-05-06T07:49:50Z</time>
      </trkpt>
      <trkpt lat="45.29612" lon="4.75574">
        <ele>320.74</ele>
        <time>2022-05-06T07:50:04Z</time>
      </trkpt>
      <trkpt lat="45.29611" lon="4.75566">
        <ele>321.7</ele>
        <time>2022-05-06T07:50:08Z</time>
      </trkpt>
      <trkpt lat="45.29615" lon="4.75539">
        <ele>321.22</ele>
        <time>2022-05-06T07:50:21Z</time>
      </trkpt>
      <trkpt lat="45.29613" lon="4.75521">
        <ele>322.18</ele>
        <time>2022-05-06T07:50:36Z</time>
      </trkpt>
      <trkpt lat="45.29603" lon="4.75498">
        <ele>323.14</ele>
        <time>2022-05-06T07:50:54Z</time>
      </trkpt>
      <trkpt lat="45.29608" lon="4.75486">
        <ele>323.62</ele>
        <time>2022-05-06T07:51:08Z</time>
      </trkpt>
      <trkpt lat="45.29625" lon="4.75492">
        <ele>325.06</ele>
        <time>2022-05-06T07:51:24Z</time>
      </trkpt>
      <trkpt lat="45.29633" lon="4.75495">
        <ele>326.02</ele>
        <time>2022-05-06T07:51:28Z</time>
      </trkpt>
      <trkpt lat="45.29655" lon="4.75514">
        <ele>327.47</ele>
        <time>2022-05-06T07:51:47Z</time>
      </trkpt>
      <trkpt lat="45.29657" lon="4.75534">
        <ele>328.91</ele>
        <time>2022-05-06T07:52:00Z</time>
      </trkpt>
      <trkpt lat="45.29663" lon="4.75562">
        <ele>331.31</ele>
        <time>2022-05-06T07:52:16Z</time>
      </trkpt>
      <trkpt lat="45.29664" lon="4.75593">
        <ele>333.23</ele>
        <time>2022-05-06T07:52:34Z</time>
      </trkpt>
      <trkpt lat="45.29666" lon="4.75598">
        <ele>333.71</ele>
        <time>2022-05-06T07:52:38Z</time>
      </trkpt>
      <trkpt lat="45.29682" lon="4.75614">
        <ele>336.12</ele>
        <time>2022-05-06T07:52:56Z</time>
      </trkpt>
      <trkpt lat="45.29686" lon="4.75616">
        <ele>337.08</ele>
        <time>2022-05-06T07:53:00Z</time>
      </trkpt>
      <trkpt lat="45.29702" lon="4.75623">
        <ele>338.52</ele>
        <time>2022-05-06T07:53:16Z</time>
      </trkpt>
      <trkpt lat="45.29715" lon="4.75625">
        <ele>339.96</ele>
        <time>2022-05-06T07:53:25Z</time>
      </trkpt>
      <trkpt lat="45.29722" lon="4.75622">
        <ele>340.92</ele>
        <time>2022-05-06T07:53:31Z</time>
      </trkpt>
      <trkpt lat="45.29743" lon="4.75612">
        <ele>342.37</ele>
        <time>2022-05-06T07:53:49Z</time>
      </trkpt>
      <trkpt lat="45.29761" lon="4.75611">
        <ele>345.73</ele>
        <time>2022-05-06T07:54:05Z</time>
      </trkpt>
      <trkpt lat="45.29762" lon="4.75611">
        <ele>345.25</ele>
        <time>2022-05-06T07:54:06Z</time>
      </trkpt>
      <trkpt lat="45.29787" lon="4.75614">
        <ele>346.21</ele>
        <time>2022-05-06T07:54:24Z</time>
      </trkpt>
      <trkpt lat="45.29809" lon="4.75617">
        <ele>348.13</ele>
        <time>2022-05-06T07:54:42Z</time>
      </trkpt>
      <trkpt lat="45.29816" lon="4.75617">
        <ele>349.1</ele>
        <time>2022-05-06T07:54:48Z</time>
      </trkpt>
      <trkpt lat="45.29829" lon="4.75609">
        <ele>350.06</ele>
        <time>2022-05-06T07:54:59Z</time>
      </trkpt>
      <trkpt lat="45.29848" lon="4.75593">
        <ele>350.06</ele>
        <time>2022-05-06T07:55:16Z</time>
      </trkpt>
      <trkpt lat="45.29868" lon="4.75585">
        <ele>351.98</ele>
        <time>2022-05-06T07:55:32Z</time>
      </trkpt>
      <trkpt lat="45.29895" lon="4.75576">
        <ele>352.46</ele>
        <time>2022-05-06T07:55:52Z</time>
      </trkpt>
      <trkpt lat="45.29916" lon="4.75567">
        <ele>353.9</ele>
        <time>2022-05-06T07:56:09Z</time>
      </trkpt>
      <trkpt lat="45.29919" lon="4.75567">
        <ele>355.34</ele>
        <time>2022-05-06T07:56:12Z</time>
      </trkpt>
      <trkpt lat="45.29929" lon="4.75565">
        <ele>355.34</ele>
        <time>2022-05-06T07:56:20Z</time>
      </trkpt>
      <trkpt lat="45.29945" lon="4.75563">
        <ele>356.79</ele>
        <time>2022-05-06T07:56:32Z</time>
      </trkpt>
      <trkpt lat="45.2995" lon="4.75561">
        <ele>354.86</ele>
        <time>2022-05-06T07:56:36Z</time>
      </trkpt>
      <trkpt lat="45.29971" lon="4.75553">
        <ele>356.79</ele>
        <time>2022-05-06T07:56:51Z</time>
      </trkpt>
      <trkpt lat="45.29995" lon="4.75547">
        <ele>355.83</ele>
        <time>2022-05-06T07:57:09Z</time>
      </trkpt>
      <trkpt lat="45.30014" lon="4.75543">
        <ele>357.27</ele>
        <time>2022-05-06T07:57:25Z</time>
      </trkpt>
      <trkpt lat="45.30019" lon="4.75523">
        <ele>358.71</ele>
        <time>2022-05-06T07:57:38Z</time>
      </trkpt>
      <trkpt lat="45.30021" lon="4.75519">
        <ele>356.79</ele>
        <time>2022-05-06T07:57:41Z</time>
      </trkpt>
      <trkpt lat="45.30021" lon="4.75501">
        <ele>359.19</ele>
        <time>2022-05-06T07:57:50Z</time>
      </trkpt>
      <trkpt lat="45.30017" lon="4.75463">
        <ele>358.71</ele>
        <time>2022-05-06T07:58:08Z</time>
      </trkpt>
      <trkpt lat="45.30016" lon="4.7543">
        <ele>358.23</ele>
        <time>2022-05-06T07:58:26Z</time>
      </trkpt>
      <trkpt lat="45.30012" lon="4.75402">
        <ele>359.19</ele>
        <time>2022-05-06T07:58:42Z</time>
      </trkpt>
      <trkpt lat="45.30004" lon="4.75371">
        <ele>358.23</ele>
        <time>2022-05-06T07:59:00Z</time>
      </trkpt>
      <trkpt lat="45.29995" lon="4.75336">
        <ele>358.23</ele>
        <time>2022-05-06T07:59:19Z</time>
      </trkpt>
      <trkpt lat="45.29984" lon="4.75307">
        <ele>358.23</ele>
        <time>2022-05-06T07:59:36Z</time>
      </trkpt>
      <trkpt lat="45.29971" lon="4.75275">
        <ele>358.23</ele>
        <time>2022-05-06T07:59:55Z</time>
      </trkpt>
      <trkpt lat="45.29967" lon="4.75252">
        <ele>358.71</ele>
        <time>2022-05-06T08:00:08Z</time>
      </trkpt>
      <trkpt lat="45.29965" lon="4.75215">
        <ele>359.67</ele>
        <time>2022-05-06T08:00:26Z</time>
      </trkpt>
      <trkpt lat="45.29963" lon="4.7518">
        <ele>360.15</ele>
        <time>2022-05-06T08:00:45Z</time>
      </trkpt>
      <trkpt lat="45.29959" lon="4.75152">
        <ele>360.63</ele>
        <time>2022-05-06T08:01:01Z</time>
      </trkpt>
      <trkpt lat="45.29954" lon="4.75138">
        <ele>360.63</ele>
        <time>2022-05-06T08:01:09Z</time>
      </trkpt>
      <trkpt lat="45.29954" lon="4.75124">
        <ele>361.11</ele>
        <time>2022-05-06T08:01:17Z</time>
      </trkpt>
      <trkpt lat="45.2996" lon="4.75115">
        <ele>362.07</ele>
        <time>2022-05-06T08:01:23Z</time>
      </trkpt>
      <trkpt lat="45.29968" lon="4.75109">
        <ele>361.59</ele>
        <time>2022-05-06T08:01:29Z</time>
      </trkpt>
      <trkpt lat="45.29973" lon="4.75103">
        <ele>362.07</ele>
        <time>2022-05-06T08:01:34Z</time>
      </trkpt>
      <trkpt lat="45.29989" lon="4.75084">
        <ele>362.07</ele>
        <time>2022-05-06T08:01:50Z</time>
      </trkpt>
      <trkpt lat="45.30005" lon="4.75068">
        <ele>361.59</ele>
        <time>2022-05-06T08:02:06Z</time>
      </trkpt>
      <trkpt lat="45.3001" lon="4.75061">
        <ele>362.55</ele>
        <time>2022-05-06T08:02:12Z</time>
      </trkpt>
      <trkpt lat="45.30025" lon="4.75032">
        <ele>361.59</ele>
        <time>2022-05-06T08:02:30Z</time>
      </trkpt>
      <trkpt lat="45.3003" lon="4.75015">
        <ele>360.63</ele>
        <time>2022-05-06T08:02:42Z</time>
      </trkpt>
      <trkpt lat="45.3003" lon="4.75008">
        <ele>360.63</ele>
        <time>2022-05-06T08:02:46Z</time>
      </trkpt>
      <trkpt lat="45.30028" lon="4.74993">
        <ele>360.63</ele>
        <time>2022-05-06T08:02:53Z</time>
      </trkpt>
      <trkpt lat="45.30024" lon="4.74969">
        <ele>359.19</ele>
        <time>2022-05-06T08:03:07Z</time>
      </trkpt>
      <trkpt lat="45.30012" lon="4.74944">
        <ele>356.79</ele>
        <time>2022-05-06T08:03:22Z</time>
      </trkpt>
      <trkpt lat="45.30011" lon="4.7494">
        <ele>356.79</ele>
        <time>2022-05-06T08:03:24Z</time>
      </trkpt>
      <trkpt lat="45.30006" lon="4.74933">
        <ele>356.31</ele>
        <time>2022-05-06T08:03:29Z</time>
      </trkpt>
      <trkpt lat="45.30001" lon="4.7491">
        <ele>356.31</ele>
        <time>2022-05-06T08:03:42Z</time>
      </trkpt>
      <trkpt lat="45.30001" lon="4.74906">
        <ele>357.27</ele>
        <time>2022-05-06T08:03:44Z</time>
      </trkpt>
      <trkpt lat="45.30003" lon="4.74902">
        <ele>356.31</ele>
        <time>2022-05-06T08:03:46Z</time>
      </trkpt>
      <trkpt lat="45.30003" lon="4.74882">
        <ele>355.83</ele>
        <time>2022-05-06T08:03:55Z</time>
      </trkpt>
      <trkpt lat="45.30011" lon="4.74866">
        <ele>355.83</ele>
        <time>2022-05-06T08:04:09Z</time>
      </trkpt>
      <trkpt lat="45.30023" lon="4.74858">
        <ele>355.83</ele>
        <time>2022-05-06T08:04:23Z</time>
      </trkpt>
      <trkpt lat="45.30041" lon="4.74843">
        <ele>358.23</ele>
        <time>2022-05-06T08:04:38Z</time>
      </trkpt>
      <trkpt lat="45.30065" lon="4.74833">
        <ele>360.15</ele>
        <time>2022-05-06T08:04:53Z</time>
      </trkpt>
      <trkpt lat="45.30074" lon="4.74833">
        <ele>362.07</ele>
        <time>2022-05-06T08:05:01Z</time>
      </trkpt>
      <trkpt lat="45.30094" lon="4.74827">
        <ele>363.52</ele>
        <time>2022-05-06T08:05:17Z</time>
      </trkpt>
      <trkpt lat="45.30099" lon="4.74823">
        <ele>363.52</ele>
        <time>2022-05-06T08:05:21Z</time>
      </trkpt>
      <trkpt lat="45.30107" lon="4.74823">
        <ele>362.55</ele>
        <time>2022-05-06T08:05:26Z</time>
      </trkpt>
      <trkpt lat="45.30127" lon="4.74813">
        <ele>360.15</ele>
        <time>2022-05-06T08:05:42Z</time>
      </trkpt>
      <trkpt lat="45.30129" lon="4.74812">
        <ele>360.15</ele>
        <time>2022-05-06T08:05:43Z</time>
      </trkpt>
      <trkpt lat="45.30149" lon="4.74802">
        <ele>360.15</ele>
        <time>2022-05-06T08:06:02Z</time>
      </trkpt>
      <trkpt lat="45.30157" lon="4.74798">
        <ele>358.71</ele>
        <time>2022-05-06T08:06:08Z</time>
      </trkpt>
      <trkpt lat="45.30178" lon="4.74797">
        <ele>356.79</ele>
        <time>2022-05-06T08:06:23Z</time>
      </trkpt>
      <trkpt lat="45.30191" lon="4.74797">
        <ele>356.31</ele>
        <time>2022-05-06T08:06:33Z</time>
      </trkpt>
      <trkpt lat="45.30205" lon="4.74792">
        <ele>354.86</ele>
        <time>2022-05-06T08:06:48Z</time>
      </trkpt>
      <trkpt lat="45.30224" lon="4.74781">
        <ele>352.94</ele>
        <time>2022-05-06T08:07:04Z</time>
      </trkpt>
      <trkpt lat="45.30232" lon="4.74776">
        <ele>352.94</ele>
        <time>2022-05-06T08:07:10Z</time>
      </trkpt>
      <trkpt lat="45.30246" lon="4.74751">
        <ele>351.98</ele>
        <time>2022-05-06T08:07:27Z</time>
      </trkpt>
      <trkpt lat="45.30247" lon="4.74747">
        <ele>351.98</ele>
        <time>2022-05-06T08:07:29Z</time>
      </trkpt>
      <trkpt lat="45.30252" lon="4.74734">
        <ele>350.54</ele>
        <time>2022-05-06T08:07:36Z</time>
      </trkpt>
      <trkpt lat="45.30251" lon="4.74718">
        <ele>348.62</ele>
        <time>2022-05-06T08:07:45Z</time>
      </trkpt>
      <trkpt lat="45.30248" lon="4.74696">
        <ele>347.17</ele>
        <time>2022-05-06T08:07:59Z</time>
      </trkpt>
      <trkpt lat="45.30242" lon="4.74662">
        <ele>345.73</ele>
        <time>2022-05-06T08:08:15Z</time>
      </trkpt>
      <trkpt lat="45.30237" lon="4.74637">
        <ele>343.81</ele>
        <time>2022-05-06T08:08:29Z</time>
      </trkpt>
      <trkpt lat="45.30237" lon="4.74622">
        <ele>343.81</ele>
        <time>2022-05-06T08:08:39Z</time>
      </trkpt>
      <trkpt lat="45.30231" lon="4.74599">
        <ele>342.37</ele>
        <time>2022-05-06T08:08:52Z</time>
      </trkpt>
      <trkpt lat="45.30227" lon="4.74585">
        <ele>341.41</ele>
        <time>2022-05-06T08:09:00Z</time>
      </trkpt>
      <trkpt lat="45.30218" lon="4.74566">
        <ele>340.92</ele>
        <time>2022-05-06T08:09:12Z</time>
      </trkpt>
      <trkpt lat="45.30199" lon="4.74542">
        <ele>339.48</ele>
        <time>2022-05-06T08:09:28Z</time>
      </trkpt>
      <trkpt lat="45.30182" lon="4.74526">
        <ele>339</ele>
        <time>2022-05-06T08:09:43Z</time>
      </trkpt>
      <trkpt lat="45.30161" lon="4.74515">
        <ele>338.04</ele>
        <time>2022-05-06T08:09:58Z</time>
      </trkpt>
      <trkpt lat="45.30141" lon="4.74502">
        <ele>338.04</ele>
        <time>2022-05-06T08:10:16Z</time>
      </trkpt>
      <trkpt lat="45.30126" lon="4.74487">
        <ele>336.6</ele>
        <time>2022-05-06T08:10:29Z</time>
      </trkpt>
      <trkpt lat="45.30114" lon="4.74471">
        <ele>335.16</ele>
        <time>2022-05-06T08:10:42Z</time>
      </trkpt>
      <trkpt lat="45.3011" lon="4.74445">
        <ele>334.68</ele>
        <time>2022-05-06T08:10:56Z</time>
      </trkpt>
      <trkpt lat="45.30115" lon="4.7442">
        <ele>334.68</ele>
        <time>2022-05-06T08:11:10Z</time>
      </trkpt>
      <trkpt lat="45.30133" lon="4.74416">
        <ele>335.16</ele>
        <time>2022-05-06T08:11:24Z</time>
      </trkpt>
      <trkpt lat="45.30152" lon="4.74417">
        <ele>338.04</ele>
        <time>2022-05-06T08:11:38Z</time>
      </trkpt>
      <trkpt lat="45.30166" lon="4.74417">
        <ele>339.96</ele>
        <time>2022-05-06T08:11:52Z</time>
      </trkpt>
      <trkpt lat="45.30173" lon="4.74417">
        <ele>341.41</ele>
        <time>2022-05-06T08:11:57Z</time>
      </trkpt>
      <trkpt lat="45.30189" lon="4.74408">
        <ele>341.89</ele>
        <time>2022-05-06T08:12:11Z</time>
      </trkpt>
      <trkpt lat="45.30191" lon="4.74407">
        <ele>342.37</ele>
        <time>2022-05-06T08:12:13Z</time>
      </trkpt>
      <trkpt lat="45.30195" lon="4.74406">
        <ele>342.85</ele>
        <time>2022-05-06T08:12:17Z</time>
      </trkpt>
      <trkpt lat="45.3022" lon="4.74397">
        <ele>343.81</ele>
        <time>2022-05-06T08:12:35Z</time>
      </trkpt>
      <trkpt lat="45.30222" lon="4.74396">
        <ele>344.77</ele>
        <time>2022-05-06T08:12:37Z</time>
      </trkpt>
      <trkpt lat="45.30227" lon="4.74392">
        <ele>344.77</ele>
        <time>2022-05-06T08:12:42Z</time>
      </trkpt>
      <trkpt lat="45.30242" lon="4.74382">
        <ele>345.25</ele>
        <time>2022-05-06T08:12:55Z</time>
      </trkpt>
      <trkpt lat="45.30266" lon="4.74371">
        <ele>344.77</ele>
        <time>2022-05-06T08:13:12Z</time>
      </trkpt>
      <trkpt lat="45.30279" lon="4.74361">
        <ele>342.37</ele>
        <time>2022-05-06T08:13:25Z</time>
      </trkpt>
      <trkpt lat="45.3028" lon="4.7436">
        <ele>342.37</ele>
        <time>2022-05-06T08:13:26Z</time>
      </trkpt>
      <trkpt lat="45.303" lon="4.74347">
        <ele>339.96</ele>
        <time>2022-05-06T08:13:44Z</time>
      </trkpt>
      <trkpt lat="45.30315" lon="4.74333">
        <ele>339</ele>
        <time>2022-05-06T08:13:59Z</time>
      </trkpt>
      <trkpt lat="45.30326" lon="4.74322">
        <ele>337.56</ele>
        <time>2022-05-06T08:14:09Z</time>
      </trkpt>
      <trkpt lat="45.3033" lon="4.74315">
        <ele>336.6</ele>
        <time>2022-05-06T08:14:14Z</time>
      </trkpt>
      <trkpt lat="45.30333" lon="4.7431">
        <ele>336.12</ele>
        <time>2022-05-06T08:14:17Z</time>
      </trkpt>
      <trkpt lat="45.3034" lon="4.74298">
        <ele>335.64</ele>
        <time>2022-05-06T08:14:25Z</time>
      </trkpt>
      <trkpt lat="45.30359" lon="4.74281">
        <ele>335.16</ele>
        <time>2022-05-06T08:14:39Z</time>
      </trkpt>
      <trkpt lat="45.30379" lon="4.74282">
        <ele>336.6</ele>
        <time>2022-05-06T08:14:53Z</time>
      </trkpt>
      <trkpt lat="45.30395" lon="4.74284">
        <ele>338.52</ele>
        <time>2022-05-06T08:15:08Z</time>
      </trkpt>
      <trkpt lat="45.30416" lon="4.74279">
        <ele>341.89</ele>
        <time>2022-05-06T08:15:25Z</time>
      </trkpt>
      <trkpt lat="45.30433" lon="4.74275">
        <ele>344.77</ele>
        <time>2022-05-06T08:15:39Z</time>
      </trkpt>
      <trkpt lat="45.30453" lon="4.74271">
        <ele>347.65</ele>
        <time>2022-05-06T08:15:56Z</time>
      </trkpt>
      <trkpt lat="45.30457" lon="4.74274">
        <ele>348.62</ele>
        <time>2022-05-06T08:16:01Z</time>
      </trkpt>
      <trkpt lat="45.30462" lon="4.74296">
        <ele>349.58</ele>
        <time>2022-05-06T08:16:16Z</time>
      </trkpt>
      <trkpt lat="45.30474" lon="4.74323">
        <ele>350.06</ele>
        <time>2022-05-06T08:16:33Z</time>
      </trkpt>
      <trkpt lat="45.30493" lon="4.74336">
        <ele>350.54</ele>
        <time>2022-05-06T08:16:49Z</time>
      </trkpt>
      <trkpt lat="45.30508" lon="4.74353">
        <ele>350.54</ele>
        <time>2022-05-06T08:17:03Z</time>
      </trkpt>
      <trkpt lat="45.3051" lon="4.74355">
        <ele>351.02</ele>
        <time>2022-05-06T08:17:05Z</time>
      </trkpt>
      <trkpt lat="45.30518" lon="4.74369">
        <ele>351.98</ele>
        <time>2022-05-06T08:17:16Z</time>
      </trkpt>
      <trkpt lat="45.30527" lon="4.74404">
        <ele>352.94</ele>
        <time>2022-05-06T08:17:35Z</time>
      </trkpt>
      <trkpt lat="45.30531" lon="4.74431">
        <ele>352.94</ele>
        <time>2022-05-06T08:17:51Z</time>
      </trkpt>
      <trkpt lat="45.30536" lon="4.74457">
        <ele>351.98</ele>
        <time>2022-05-06T08:18:05Z</time>
      </trkpt>
      <trkpt lat="45.30535" lon="4.74485">
        <ele>351.5</ele>
        <time>2022-05-06T08:18:21Z</time>
      </trkpt>
      <trkpt lat="45.30533" lon="4.74502">
        <ele>350.06</ele>
        <time>2022-05-06T08:18:31Z</time>
      </trkpt>
      <trkpt lat="45.30535" lon="4.74536">
        <ele>349.1</ele>
        <time>2022-05-06T08:18:48Z</time>
      </trkpt>
      <trkpt lat="45.30541" lon="4.74562">
        <ele>347.65</ele>
        <time>2022-05-06T08:19:02Z</time>
      </trkpt>
      <trkpt lat="45.30543" lon="4.74579">
        <ele>347.65</ele>
        <time>2022-05-06T08:19:11Z</time>
      </trkpt>
      <trkpt lat="45.30542" lon="4.74586">
        <ele>347.17</ele>
        <time>2022-05-06T08:19:14Z</time>
      </trkpt>
      <trkpt lat="45.30554" lon="4.74602">
        <ele>348.13</ele>
        <time>2022-05-06T08:19:29Z</time>
      </trkpt>
      <trkpt lat="45.3056" lon="4.74602">
        <ele>349.1</ele>
        <time>2022-05-06T08:19:35Z</time>
      </trkpt>
      <trkpt lat="45.30579" lon="4.74607">
        <ele>349.58</ele>
        <time>2022-05-06T08:19:50Z</time>
      </trkpt>
      <trkpt lat="45.306" lon="4.74607">
        <ele>350.06</ele>
        <time>2022-05-06T08:20:05Z</time>
      </trkpt>
      <trkpt lat="45.3061" lon="4.74633">
        <ele>349.1</ele>
        <time>2022-05-06T08:20:22Z</time>
      </trkpt>
      <trkpt lat="45.30614" lon="4.74664">
        <ele>348.13</ele>
        <time>2022-05-06T08:20:39Z</time>
      </trkpt>
      <trkpt lat="45.30619" lon="4.74697">
        <ele>347.17</ele>
        <time>2022-05-06T08:20:55Z</time>
      </trkpt>
      <trkpt lat="45.30624" lon="4.74722">
        <ele>346.21</ele>
        <time>2022-05-06T08:21:09Z</time>
      </trkpt>
      <trkpt lat="45.30636" lon="4.74748">
        <ele>344.77</ele>
        <time>2022-05-06T08:21:26Z</time>
      </trkpt>
      <trkpt lat="45.3065" lon="4.74772">
        <ele>343.81</ele>
        <time>2022-05-06T08:21:42Z</time>
      </trkpt>
      <trkpt lat="45.30658" lon="4.74784">
        <ele>342.85</ele>
        <time>2022-05-06T08:21:52Z</time>
      </trkpt>
      <trkpt lat="45.30664" lon="4.74816">
        <ele>340.92</ele>
        <time>2022-05-06T08:22:10Z</time>
      </trkpt>
      <trkpt lat="45.30666" lon="4.74821">
        <ele>341.41</ele>
        <time>2022-05-06T08:22:13Z</time>
      </trkpt>
      <trkpt lat="45.30667" lon="4.7484">
        <ele>339</ele>
        <time>2022-05-06T08:22:27Z</time>
      </trkpt>
      <trkpt lat="45.30696" lon="4.74841">
        <ele>339.48</ele>
        <time>2022-05-06T08:22:48Z</time>
      </trkpt>
      <trkpt lat="45.307" lon="4.74838">
        <ele>339.48</ele>
        <time>2022-05-06T08:22:51Z</time>
      </trkpt>
      <trkpt lat="45.30704" lon="4.74833">
        <ele>340.92</ele>
        <time>2022-05-06T08:22:54Z</time>
      </trkpt>
      <trkpt lat="45.30718" lon="4.74816">
        <ele>339.48</ele>
        <time>2022-05-06T08:23:07Z</time>
      </trkpt>
      <trkpt lat="45.30734" lon="4.74798">
        <ele>339.96</ele>
        <time>2022-05-06T08:23:22Z</time>
      </trkpt>
      <trkpt lat="45.30757" lon="4.74777">
        <ele>339</ele>
        <time>2022-05-06T08:23:41Z</time>
      </trkpt>
      <trkpt lat="45.30762" lon="4.74774">
        <ele>339.96</ele>
        <time>2022-05-06T08:23:45Z</time>
      </trkpt>
      <trkpt lat="45.30778" lon="4.74757">
        <ele>339.96</ele>
        <time>2022-05-06T08:24:01Z</time>
      </trkpt>
      <trkpt lat="45.30792" lon="4.74739">
        <ele>338.52</ele>
        <time>2022-05-06T08:24:15Z</time>
      </trkpt>
      <trkpt lat="45.30798" lon="4.7473">
        <ele>336.12</ele>
        <time>2022-05-06T08:24:22Z</time>
      </trkpt>
      <trkpt lat="45.30821" lon="4.74714">
        <ele>333.23</ele>
        <time>2022-05-06T08:24:39Z</time>
      </trkpt>
      <trkpt lat="45.30846" lon="4.747">
        <ele>332.27</ele>
        <time>2022-05-06T08:24:58Z</time>
      </trkpt>
      <trkpt lat="45.30865" lon="4.74681">
        <ele>330.83</ele>
        <time>2022-05-06T08:25:16Z</time>
      </trkpt>
      <trkpt lat="45.30882" lon="4.74672">
        <ele>327.95</ele>
        <time>2022-05-06T08:25:29Z</time>
      </trkpt>
      <trkpt lat="45.30905" lon="4.74656">
        <ele>327.95</ele>
        <time>2022-05-06T08:25:47Z</time>
      </trkpt>
      <trkpt lat="45.30924" lon="4.74642">
        <ele>326.02</ele>
        <time>2022-05-06T08:26:04Z</time>
      </trkpt>
      <trkpt lat="45.30946" lon="4.74635">
        <ele>325.06</ele>
        <time>2022-05-06T08:26:21Z</time>
      </trkpt>
      <trkpt lat="45.30961" lon="4.74637">
        <ele>326.99</ele>
        <time>2022-05-06T08:26:35Z</time>
      </trkpt>
      <trkpt lat="45.30962" lon="4.74638">
        <ele>326.99</ele>
        <time>2022-05-06T08:26:36Z</time>
      </trkpt>
      <trkpt lat="45.30977" lon="4.74649">
        <ele>329.39</ele>
        <time>2022-05-06T08:26:52Z</time>
      </trkpt>
      <trkpt lat="45.30994" lon="4.74643">
        <ele>331.79</ele>
        <time>2022-05-06T08:27:07Z</time>
      </trkpt>
      <trkpt lat="45.31016" lon="4.7464">
        <ele>333.23</ele>
        <time>2022-05-06T08:27:24Z</time>
      </trkpt>
      <trkpt lat="45.31035" lon="4.74648">
        <ele>334.2</ele>
        <time>2022-05-06T08:27:41Z</time>
      </trkpt>
      <trkpt lat="45.3105" lon="4.74664">
        <ele>336.12</ele>
        <time>2022-05-06T08:27:56Z</time>
      </trkpt>
      <trkpt lat="45.31065" lon="4.74685">
        <ele>338.04</ele>
        <time>2022-05-06T08:28:13Z</time>
      </trkpt>
      <trkpt lat="45.31079" lon="4.74698">
        <ele>338.04</ele>
        <time>2022-05-06T08:28:26Z</time>
      </trkpt>
      <trkpt lat="45.3109" lon="4.74707">
        <ele>338.52</ele>
        <time>2022-05-06T08:28:36Z</time>
      </trkpt>
      <trkpt lat="45.31103" lon="4.7473">
        <ele>339</ele>
        <time>2022-05-06T08:28:52Z</time>
      </trkpt>
      <trkpt lat="45.31112" lon="4.74748">
        <ele>339</ele>
        <time>2022-05-06T08:29:04Z</time>
      </trkpt>
      <trkpt lat="45.31116" lon="4.7476">
        <ele>339</ele>
        <time>2022-05-06T08:29:12Z</time>
      </trkpt>
      <trkpt lat="45.3112" lon="4.74763">
        <ele>337.56</ele>
        <time>2022-05-06T08:29:15Z</time>
      </trkpt>
      <trkpt lat="45.31133" lon="4.74772">
        <ele>337.56</ele>
        <time>2022-05-06T08:29:28Z</time>
      </trkpt>
      <trkpt lat="45.31134" lon="4.74775">
        <ele>337.08</ele>
        <time>2022-05-06T08:29:30Z</time>
      </trkpt>
      <trkpt lat="45.31135" lon="4.74783">
        <ele>336.6</ele>
        <time>2022-05-06T08:29:34Z</time>
      </trkpt>
      <trkpt lat="45.31133" lon="4.74811">
        <ele>335.64</ele>
        <time>2022-05-06T08:29:49Z</time>
      </trkpt>
      <trkpt lat="45.31124" lon="4.74847">
        <ele>336.6</ele>
        <time>2022-05-06T08:30:08Z</time>
      </trkpt>
      <trkpt lat="45.31121" lon="4.74885">
        <ele>337.08</ele>
        <time>2022-05-06T08:30:28Z</time>
      </trkpt>
      <trkpt lat="45.31115" lon="4.74922">
        <ele>337.08</ele>
        <time>2022-05-06T08:30:47Z</time>
      </trkpt>
      <trkpt lat="45.31113" lon="4.74957">
        <ele>337.56</ele>
        <time>2022-05-06T08:31:05Z</time>
      </trkpt>
      <trkpt lat="45.31108" lon="4.74992">
        <ele>338.52</ele>
        <time>2022-05-06T08:31:24Z</time>
      </trkpt>
      <trkpt lat="45.31105" lon="4.75029">
        <ele>338.52</ele>
        <time>2022-05-06T08:31:43Z</time>
      </trkpt>
      <trkpt lat="45.31103" lon="4.75061">
        <ele>338.52</ele>
        <time>2022-05-06T08:32:00Z</time>
      </trkpt>
      <trkpt lat="45.31109" lon="4.75091">
        <ele>339</ele>
        <time>2022-05-06T08:32:17Z</time>
      </trkpt>
      <trkpt lat="45.31122" lon="4.75125">
        <ele>337.08</ele>
        <time>2022-05-06T08:32:36Z</time>
      </trkpt>
      <trkpt lat="45.31134" lon="4.75149">
        <ele>336.6</ele>
        <time>2022-05-06T08:32:52Z</time>
      </trkpt>
      <trkpt lat="45.31136" lon="4.75153">
        <ele>336.6</ele>
        <time>2022-05-06T08:32:54Z</time>
      </trkpt>
      <trkpt lat="45.31138" lon="4.75167">
        <ele>335.64</ele>
        <time>2022-05-06T08:33:01Z</time>
      </trkpt>
      <trkpt lat="45.31149" lon="4.752">
        <ele>334.2</ele>
        <time>2022-05-06T08:33:20Z</time>
      </trkpt>
      <trkpt lat="45.31161" lon="4.75228">
        <ele>334.68</ele>
        <time>2022-05-06T08:33:37Z</time>
      </trkpt>
      <trkpt lat="45.31175" lon="4.75264">
        <ele>333.71</ele>
        <time>2022-05-06T08:33:58Z</time>
      </trkpt>
      <trkpt lat="45.31189" lon="4.75291">
        <ele>333.71</ele>
        <time>2022-05-06T08:34:17Z</time>
      </trkpt>
      <trkpt lat="45.31195" lon="4.75324">
        <ele>333.23</ele>
        <time>2022-05-06T08:34:34Z</time>
      </trkpt>
      <trkpt lat="45.31206" lon="4.75355">
        <ele>332.27</ele>
        <time>2022-05-06T08:34:53Z</time>
      </trkpt>
      <trkpt lat="45.31213" lon="4.75389">
        <ele>331.79</ele>
        <time>2022-05-06T08:35:11Z</time>
      </trkpt>
      <trkpt lat="45.31215" lon="4.75396">
        <ele>331.79</ele>
        <time>2022-05-06T08:35:15Z</time>
      </trkpt>
      <trkpt lat="45.31222" lon="4.75421">
        <ele>330.35</ele>
        <time>2022-05-06T08:35:30Z</time>
      </trkpt>
      <trkpt lat="45.31228" lon="4.75443">
        <ele>326.99</ele>
        <time>2022-05-06T08:35:44Z</time>
      </trkpt>
      <trkpt lat="45.3124" lon="4.75471">
        <ele>325.06</ele>
        <time>2022-05-06T08:36:02Z</time>
      </trkpt>
      <trkpt lat="45.3125" lon="4.755">
        <ele>322.18</ele>
        <time>2022-05-06T08:36:20Z</time>
      </trkpt>
      <trkpt lat="45.31256" lon="4.75524">
        <ele>320.74</ele>
        <time>2022-05-06T08:36:33Z</time>
      </trkpt>
      <trkpt lat="45.31263" lon="4.75547">
        <ele>318.33</ele>
        <time>2022-05-06T08:36:47Z</time>
      </trkpt>
      <trkpt lat="45.31264" lon="4.75555">
        <ele>317.85</ele>
        <time>2022-05-06T08:36:51Z</time>
      </trkpt>
      <trkpt lat="45.31268" lon="4.7558">
        <ele>315.45</ele>
        <time>2022-05-06T08:37:05Z</time>
      </trkpt>
      <trkpt lat="45.31275" lon="4.75608">
        <ele>313.05</ele>
        <time>2022-05-06T08:37:21Z</time>
      </trkpt>
      <trkpt lat="45.31276" lon="4.7561">
        <ele>313.05</ele>
        <time>2022-05-06T08:37:22Z</time>
      </trkpt>
      <trkpt lat="45.31282" lon="4.75628">
        <ele>311.6</ele>
        <time>2022-05-06T08:37:33Z</time>
      </trkpt>
      <trkpt lat="45.31286" lon="4.75658">
        <ele>310.16</ele>
        <time>2022-05-06T08:37:48Z</time>
      </trkpt>
      <trkpt lat="45.31298" lon="4.75689">
        <ele>308.24</ele>
        <time>2022-05-06T08:38:06Z</time>
      </trkpt>
      <trkpt lat="45.31303" lon="4.75697">
        <ele>308.72</ele>
        <time>2022-05-06T08:38:11Z</time>
      </trkpt>
      <trkpt lat="45.31305" lon="4.757">
        <ele>309.68</ele>
        <time>2022-05-06T08:38:13Z</time>
      </trkpt>
      <trkpt lat="45.31307" lon="4.75704">
        <ele>308.24</ele>
        <time>2022-05-06T08:38:16Z</time>
      </trkpt>
      <trkpt lat="45.31314" lon="4.75725">
        <ele>307.76</ele>
        <time>2022-05-06T08:38:29Z</time>
      </trkpt>
      <trkpt lat="45.31315" lon="4.75741">
        <ele>307.76</ele>
        <time>2022-05-06T08:38:37Z</time>
      </trkpt>
      <trkpt lat="45.31316" lon="4.75781">
        <ele>307.28</ele>
        <time>2022-05-06T08:38:57Z</time>
      </trkpt>
      <trkpt lat="45.31318" lon="4.75809">
        <ele>305.36</ele>
        <time>2022-05-06T08:39:13Z</time>
      </trkpt>
      <trkpt lat="45.31321" lon="4.75831">
        <ele>303.43</ele>
        <time>2022-05-06T08:39:26Z</time>
      </trkpt>
      <trkpt lat="45.31324" lon="4.75865">
        <ele>301.51</ele>
        <time>2022-05-06T08:39:43Z</time>
      </trkpt>
      <trkpt lat="45.31331" lon="4.75892">
        <ele>300.07</ele>
        <time>2022-05-06T08:39:58Z</time>
      </trkpt>
      <trkpt lat="45.3134" lon="4.75916">
        <ele>297.67</ele>
        <time>2022-05-06T08:40:12Z</time>
      </trkpt>
      <trkpt lat="45.31352" lon="4.75947">
        <ele>295.74</ele>
        <time>2022-05-06T08:40:31Z</time>
      </trkpt>
      <trkpt lat="45.31361" lon="4.75975">
        <ele>293.34</ele>
        <time>2022-05-06T08:40:49Z</time>
      </trkpt>
      <trkpt lat="45.31362" lon="4.7598">
        <ele>292.86</ele>
        <time>2022-05-06T08:40:52Z</time>
      </trkpt>
      <trkpt lat="45.3138" lon="4.75997">
        <ele>291.42</ele>
        <time>2022-05-06T08:41:09Z</time>
      </trkpt>
      <trkpt lat="45.31391" lon="4.76018">
        <ele>289.49</ele>
        <time>2022-05-06T08:41:23Z</time>
      </trkpt>
      <trkpt lat="45.31395" lon="4.76041">
        <ele>288.05</ele>
        <time>2022-05-06T08:41:35Z</time>
      </trkpt>
      <trkpt lat="45.314" lon="4.76067">
        <ele>285.17</ele>
        <time>2022-05-06T08:41:51Z</time>
      </trkpt>
      <trkpt lat="45.31412" lon="4.76092">
        <ele>283.73</ele>
        <time>2022-05-06T08:42:08Z</time>
      </trkpt>
      <trkpt lat="45.31425" lon="4.76117">
        <ele>281.8</ele>
        <time>2022-05-06T08:42:24Z</time>
      </trkpt>
      <trkpt lat="45.31426" lon="4.76125">
        <ele>280.84</ele>
        <time>2022-05-06T08:42:29Z</time>
      </trkpt>
      <trkpt lat="45.3143" lon="4.76163">
        <ele>278.44</ele>
        <time>2022-05-06T08:42:50Z</time>
      </trkpt>
      <trkpt lat="45.31426" lon="4.76185">
        <ele>277</ele>
        <time>2022-05-06T08:43:00Z</time>
      </trkpt>
      <trkpt lat="45.3142" lon="4.76218">
        <ele>275.07</ele>
        <time>2022-05-06T08:43:18Z</time>
      </trkpt>
      <trkpt lat="45.3141" lon="4.76251">
        <ele>273.15</ele>
        <time>2022-05-06T08:43:35Z</time>
      </trkpt>
      <trkpt lat="45.31409" lon="4.76255">
        <ele>273.63</ele>
        <time>2022-05-06T08:43:37Z</time>
      </trkpt>
      <trkpt lat="45.31402" lon="4.76267">
        <ele>271.71</ele>
        <time>2022-05-06T08:43:45Z</time>
      </trkpt>
      <trkpt lat="45.31392" lon="4.76285">
        <ele>270.75</ele>
        <time>2022-05-06T08:44:00Z</time>
      </trkpt>
      <trkpt lat="45.31394" lon="4.76316">
        <ele>267.86</ele>
        <time>2022-05-06T08:44:17Z</time>
      </trkpt>
      <trkpt lat="45.31404" lon="4.76339">
        <ele>266.42</ele>
        <time>2022-05-06T08:44:31Z</time>
      </trkpt>
      <trkpt lat="45.31412" lon="4.76357">
        <ele>264.5</ele>
        <time>2022-05-06T08:44:44Z</time>
      </trkpt>
      <trkpt lat="45.31435" lon="4.76368">
        <ele>263.06</ele>
        <time>2022-05-06T08:45:02Z</time>
      </trkpt>
      <trkpt lat="45.31454" lon="4.76389">
        <ele>260.17</ele>
        <time>2022-05-06T08:45:21Z</time>
      </trkpt>
      <trkpt lat="45.31454" lon="4.76415">
        <ele>258.25</ele>
        <time>2022-05-06T08:45:36Z</time>
      </trkpt>
      <trkpt lat="45.3145" lon="4.76423">
        <ele>257.77</ele>
        <time>2022-05-06T08:45:41Z</time>
      </trkpt>
      <trkpt lat="45.31436" lon="4.76448">
        <ele>255.85</ele>
        <time>2022-05-06T08:45:56Z</time>
      </trkpt>
      <trkpt lat="45.31435" lon="4.76479">
        <ele>252.96</ele>
        <time>2022-05-06T08:46:14Z</time>
      </trkpt>
      <trkpt lat="45.31436" lon="4.76481">
        <ele>252.96</ele>
        <time>2022-05-06T08:46:16Z</time>
      </trkpt>
      <trkpt lat="45.31451" lon="4.76508">
        <ele>252</ele>
        <time>2022-05-06T08:46:32Z</time>
      </trkpt>
      <trkpt lat="45.31454" lon="4.76517">
        <ele>251.52</ele>
        <time>2022-05-06T08:46:37Z</time>
      </trkpt>
      <trkpt lat="45.31453" lon="4.76551">
        <ele>249.12</ele>
        <time>2022-05-06T08:46:55Z</time>
      </trkpt>
      <trkpt lat="45.31453" lon="4.76562">
        <ele>248.16</ele>
        <time>2022-05-06T08:47:01Z</time>
      </trkpt>
      <trkpt lat="45.31447" lon="4.76599">
        <ele>247.2</ele>
        <time>2022-05-06T08:47:21Z</time>
      </trkpt>
      <trkpt lat="45.31431" lon="4.7663">
        <ele>245.27</ele>
        <time>2022-05-06T08:47:41Z</time>
      </trkpt>
      <trkpt lat="45.3142" lon="4.76639">
        <ele>244.31</ele>
        <time>2022-05-06T08:47:53Z</time>
      </trkpt>
      <trkpt lat="45.31418" lon="4.76629">
        <ele>245.27</ele>
        <time>2022-05-06T08:48:05Z</time>
      </trkpt>
      <trkpt lat="45.31417" lon="4.76632">
        <ele>244.79</ele>
        <time>2022-05-06T08:48:31Z</time>
      </trkpt>
      <trkpt lat="45.31418" lon="4.7663">
        <ele>244.31</ele>
        <time>2022-05-06T08:48:51Z</time>
      </trkpt>
      <trkpt lat="45.31416" lon="4.76634">
        <ele>243.83</ele>
        <time>2022-05-06T08:49:14Z</time>
      </trkpt>
      <trkpt lat="45.31418" lon="4.76631">
        <ele>245.27</ele>
        <time>2022-05-06T08:49:32Z</time>
      </trkpt>
      <trkpt lat="45.31421" lon="4.76632">
        <ele>244.79</ele>
        <time>2022-05-06T08:49:46Z</time>
      </trkpt>
      <trkpt lat="45.3142" lon="4.76634">
        <ele>244.79</ele>
        <time>2022-05-06T08:49:48Z</time>
      </trkpt>
      <trkpt lat="45.31421" lon="4.76642">
        <ele>243.83</ele>
        <time>2022-05-06T08:49:53Z</time>
      </trkpt>
      <trkpt lat="45.31418" lon="4.76653">
        <ele>243.35</ele>
        <time>2022-05-06T08:50:00Z</time>
      </trkpt>
      <trkpt lat="45.31419" lon="4.76682">
        <ele>241.43</ele>
        <time>2022-05-06T08:50:18Z</time>
      </trkpt>
      <trkpt lat="45.31435" lon="4.767">
        <ele>240.47</ele>
        <time>2022-05-06T08:50:32Z</time>
      </trkpt>
      <trkpt lat="45.31441" lon="4.767">
        <ele>239.99</ele>
        <time>2022-05-06T08:50:36Z</time>
      </trkpt>
      <trkpt lat="45.31449" lon="4.76695">
        <ele>239.02</ele>
        <time>2022-05-06T08:50:44Z</time>
      </trkpt>
      <trkpt lat="45.31459" lon="4.76681">
        <ele>239.02</ele>
        <time>2022-05-06T08:50:53Z</time>
      </trkpt>
      <trkpt lat="45.31473" lon="4.76644">
        <ele>237.1</ele>
        <time>2022-05-06T08:51:16Z</time>
      </trkpt>
      <trkpt lat="45.31484" lon="4.76615">
        <ele>235.18</ele>
        <time>2022-05-06T08:51:33Z</time>
      </trkpt>
      <trkpt lat="45.31494" lon="4.76586">
        <ele>233.26</ele>
        <time>2022-05-06T08:51:49Z</time>
      </trkpt>
      <trkpt lat="45.31495" lon="4.76581">
        <ele>232.78</ele>
        <time>2022-05-06T08:51:52Z</time>
      </trkpt>
      <trkpt lat="45.31502" lon="4.76569">
        <ele>231.81</ele>
        <time>2022-05-06T08:52:00Z</time>
      </trkpt>
      <trkpt lat="45.31515" lon="4.76542">
        <ele>229.89</ele>
        <time>2022-05-06T08:52:18Z</time>
      </trkpt>
      <trkpt lat="45.3152" lon="4.76516">
        <ele>228.93</ele>
        <time>2022-05-06T08:52:31Z</time>
      </trkpt>
      <trkpt lat="45.31518" lon="4.76506">
        <ele>228.93</ele>
        <time>2022-05-06T08:52:36Z</time>
      </trkpt>
      <trkpt lat="45.31514" lon="4.76499">
        <ele>228.45</ele>
        <time>2022-05-06T08:52:40Z</time>
      </trkpt>
      <trkpt lat="45.31506" lon="4.76484">
        <ele>227.49</ele>
        <time>2022-05-06T08:52:52Z</time>
      </trkpt>
      <trkpt lat="45.31508" lon="4.76457">
        <ele>224.61</ele>
        <time>2022-05-06T08:53:08Z</time>
      </trkpt>
      <trkpt lat="45.31524" lon="4.76432">
        <ele>222.68</ele>
        <time>2022-05-06T08:53:26Z</time>
      </trkpt>
      <trkpt lat="45.31547" lon="4.76417">
        <ele>221.24</ele>
        <time>2022-05-06T08:53:44Z</time>
      </trkpt>
      <trkpt lat="45.3156" lon="4.76402">
        <ele>219.32</ele>
        <time>2022-05-06T08:53:57Z</time>
      </trkpt>
      <trkpt lat="45.31561" lon="4.76395">
        <ele>218.84</ele>
        <time>2022-05-06T08:54:01Z</time>
      </trkpt>
      <trkpt lat="45.31561" lon="4.76391">
        <ele>218.84</ele>
        <time>2022-05-06T08:54:03Z</time>
      </trkpt>
      <trkpt lat="45.31558" lon="4.76375">
        <ele>218.36</ele>
        <time>2022-05-06T08:54:10Z</time>
      </trkpt>
      <trkpt lat="45.31557" lon="4.76373">
        <ele>218.36</ele>
        <time>2022-05-06T08:54:11Z</time>
      </trkpt>
      <trkpt lat="45.31553" lon="4.76364">
        <ele>218.84</ele>
        <time>2022-05-06T08:54:16Z</time>
      </trkpt>
      <trkpt lat="45.3154" lon="4.76347">
        <ele>217.4</ele>
        <time>2022-05-06T08:54:30Z</time>
      </trkpt>
      <trkpt lat="45.31534" lon="4.76339">
        <ele>216.91</ele>
        <time>2022-05-06T08:54:37Z</time>
      </trkpt>
      <trkpt lat="45.3153" lon="4.76313">
        <ele>215.47</ele>
        <time>2022-05-06T08:54:50Z</time>
      </trkpt>
      <trkpt lat="45.31551" lon="4.76296">
        <ele>214.03</ele>
        <time>2022-05-06T08:55:09Z</time>
      </trkpt>
      <trkpt lat="45.31562" lon="4.76275">
        <ele>212.59</ele>
        <time>2022-05-06T08:55:23Z</time>
      </trkpt>
      <trkpt lat="45.31565" lon="4.76257">
        <ele>212.11</ele>
        <time>2022-05-06T08:55:33Z</time>
      </trkpt>
      <trkpt lat="45.31566" lon="4.76254">
        <ele>211.63</ele>
        <time>2022-05-06T08:55:34Z</time>
      </trkpt>
      <trkpt lat="45.31566" lon="4.76253">
        <ele>212.11</ele>
        <time>2022-05-06T08:55:35Z</time>
      </trkpt>
      <trkpt lat="45.31567" lon="4.76252">
        <ele>211.63</ele>
        <time>2022-05-06T08:55:36Z</time>
      </trkpt>
      <trkpt lat="45.31567" lon="4.76251">
        <ele>211.63</ele>
        <time>2022-05-06T08:55:37Z</time>
      </trkpt>
      <trkpt lat="45.31581" lon="4.76237">
        <ele>210.19</ele>
        <time>2022-05-06T08:55:52Z</time>
      </trkpt>
      <trkpt lat="45.31597" lon="4.76243">
        <ele>209.22</ele>
        <time>2022-05-06T08:56:07Z</time>
      </trkpt>
      <trkpt lat="45.31599" lon="4.76243">
        <ele>209.22</ele>
        <time>2022-05-06T08:56:08Z</time>
      </trkpt>
      <trkpt lat="45.31602" lon="4.76244">
        <ele>209.22</ele>
        <time>2022-05-06T08:56:10Z</time>
      </trkpt>
      <trkpt lat="45.31604" lon="4.76245">
        <ele>209.22</ele>
        <time>2022-05-06T08:56:11Z</time>
      </trkpt>
      <trkpt lat="45.31606" lon="4.76246">
        <ele>208.74</ele>
        <time>2022-05-06T08:56:12Z</time>
      </trkpt>
      <trkpt lat="45.31608" lon="4.76246">
        <ele>208.74</ele>
        <time>2022-05-06T08:56:13Z</time>
      </trkpt>
      <trkpt lat="45.31609" lon="4.76247">
        <ele>208.26</ele>
        <time>2022-05-06T08:56:14Z</time>
      </trkpt>
      <trkpt lat="45.31629" lon="4.76259">
        <ele>206.82</ele>
        <time>2022-05-06T08:56:28Z</time>
      </trkpt>
      <trkpt lat="45.31631" lon="4.76259">
        <ele>206.82</ele>
        <time>2022-05-06T08:56:29Z</time>
      </trkpt>
      <trkpt lat="45.31632" lon="4.76259">
        <ele>207.3</ele>
        <time>2022-05-06T08:56:30Z</time>
      </trkpt>
      <trkpt lat="45.31654" lon="4.76255">
        <ele>205.38</ele>
        <time>2022-05-06T08:56:47Z</time>
      </trkpt>
      <trkpt lat="45.31671" lon="4.76242">
        <ele>204.9</ele>
        <time>2022-05-06T08:57:02Z</time>
      </trkpt>
      <trkpt lat="45.31683" lon="4.76227">
        <ele>203.46</ele>
        <time>2022-05-06T08:57:15Z</time>
      </trkpt>
      <trkpt lat="45.3169" lon="4.76216">
        <ele>203.94</ele>
        <time>2022-05-06T08:57:23Z</time>
      </trkpt>
      <trkpt lat="45.31696" lon="4.76208">
        <ele>202.98</ele>
        <time>2022-05-06T08:57:39Z</time>
      </trkpt>
      <trkpt lat="45.31697" lon="4.76211">
        <ele>202.01</ele>
        <time>2022-05-06T08:58:00Z</time>
      </trkpt>
      <trkpt lat="45.31699" lon="4.76211">
        <ele>202.01</ele>
        <time>2022-05-06T08:58:24Z</time>
      </trkpt>
      <trkpt lat="45.31698" lon="4.76211">
        <ele>202.01</ele>
        <time>2022-05-06T08:58:39Z</time>
      </trkpt>
      <trkpt lat="45.31706" lon="4.76205">
        <ele>201.53</ele>
        <time>2022-05-06T08:58:50Z</time>
      </trkpt>
      <trkpt lat="45.31718" lon="4.76194">
        <ele>201.05</ele>
        <time>2022-05-06T08:59:05Z</time>
      </trkpt>
      <trkpt lat="45.3173" lon="4.76174">
        <ele>197.69</ele>
        <time>2022-05-06T08:59:20Z</time>
      </trkpt>
      <trkpt lat="45.31732" lon="4.76163">
        <ele>196.73</ele>
        <time>2022-05-06T08:59:27Z</time>
      </trkpt>
      <trkpt lat="45.31731" lon="4.76161">
        <ele>196.73</ele>
        <time>2022-05-06T08:59:28Z</time>
      </trkpt>
      <trkpt lat="45.31731" lon="4.76159">
        <ele>196.73</ele>
        <time>2022-05-06T08:59:29Z</time>
      </trkpt>
      <trkpt lat="45.31731" lon="4.76157">
        <ele>196.73</ele>
        <time>2022-05-06T08:59:30Z</time>
      </trkpt>
      <trkpt lat="45.3173" lon="4.76155">
        <ele>197.21</ele>
        <time>2022-05-06T08:59:31Z</time>
      </trkpt>
      <trkpt lat="45.31726" lon="4.76147">
        <ele>196.25</ele>
        <time>2022-05-06T08:59:36Z</time>
      </trkpt>
      <trkpt lat="45.31724" lon="4.76144">
        <ele>195.28</ele>
        <time>2022-05-06T08:59:38Z</time>
      </trkpt>
      <trkpt lat="45.31723" lon="4.76143">
        <ele>195.28</ele>
        <time>2022-05-06T08:59:39Z</time>
      </trkpt>
      <trkpt lat="45.31722" lon="4.76142">
        <ele>195.77</ele>
        <time>2022-05-06T08:59:40Z</time>
      </trkpt>
      <trkpt lat="45.31722" lon="4.76141">
        <ele>195.28</ele>
        <time>2022-05-06T08:59:41Z</time>
      </trkpt>
      <trkpt lat="45.31721" lon="4.76139">
        <ele>194.8</ele>
        <time>2022-05-06T08:59:42Z</time>
      </trkpt>
      <trkpt lat="45.31713" lon="4.76117">
        <ele>192.4</ele>
        <time>2022-05-06T08:59:56Z</time>
      </trkpt>
      <trkpt lat="45.31709" lon="4.76102">
        <ele>190.96</ele>
        <time>2022-05-06T09:00:04Z</time>
      </trkpt>
      <trkpt lat="45.31709" lon="4.761">
        <ele>190.96</ele>
        <time>2022-05-06T09:00:05Z</time>
      </trkpt>
      <trkpt lat="45.3171" lon="4.76098">
        <ele>190.48</ele>
        <time>2022-05-06T09:00:06Z</time>
      </trkpt>
      <trkpt lat="45.3171" lon="4.76096">
        <ele>190.48</ele>
        <time>2022-05-06T09:00:07Z</time>
      </trkpt>
      <trkpt lat="45.3171" lon="4.76094">
        <ele>190</ele>
        <time>2022-05-06T09:00:08Z</time>
      </trkpt>
      <trkpt lat="45.3171" lon="4.76088">
        <ele>189.04</ele>
        <time>2022-05-06T09:00:12Z</time>
      </trkpt>
      <trkpt lat="45.3171" lon="4.76085">
        <ele>188.56</ele>
        <time>2022-05-06T09:00:14Z</time>
      </trkpt>
      <trkpt lat="45.31711" lon="4.76083">
        <ele>188.56</ele>
        <time>2022-05-06T09:00:15Z</time>
      </trkpt>
      <trkpt lat="45.31717" lon="4.76069">
        <ele>187.59</ele>
        <time>2022-05-06T09:00:25Z</time>
      </trkpt>
      <trkpt lat="45.31718" lon="4.7607">
        <ele>187.11</ele>
        <time>2022-05-06T09:00:26Z</time>
      </trkpt>
      <trkpt lat="45.31719" lon="4.76071">
        <ele>187.11</ele>
        <time>2022-05-06T09:00:27Z</time>
      </trkpt>
      <trkpt lat="45.3172" lon="4.76073">
        <ele>187.11</ele>
        <time>2022-05-06T09:00:28Z</time>
      </trkpt>
      <trkpt lat="45.31721" lon="4.76075">
        <ele>186.63</ele>
        <time>2022-05-06T09:00:29Z</time>
      </trkpt>
      <trkpt lat="45.31732" lon="4.76098">
        <ele>183.75</ele>
        <time>2022-05-06T09:00:44Z</time>
      </trkpt>
      <trkpt lat="45.31733" lon="4.761">
        <ele>183.75</ele>
        <time>2022-05-06T09:00:45Z</time>
      </trkpt>
      <trkpt lat="45.31733" lon="4.76101">
        <ele>183.75</ele>
        <time>2022-05-06T09:00:46Z</time>
      </trkpt>
      <trkpt lat="45.31748" lon="4.76122">
        <ele>180.87</ele>
        <time>2022-05-06T09:01:00Z</time>
      </trkpt>
      <trkpt lat="45.31749" lon="4.76121">
        <ele>179.9</ele>
        <time>2022-05-06T09:01:02Z</time>
      </trkpt>
      <trkpt lat="45.31753" lon="4.76111">
        <ele>180.38</ele>
        <time>2022-05-06T09:01:09Z</time>
      </trkpt>
      <trkpt lat="45.31754" lon="4.76109">
        <ele>179.9</ele>
        <time>2022-05-06T09:01:10Z</time>
      </trkpt>
      <trkpt lat="45.31758" lon="4.761">
        <ele>178.94</ele>
        <time>2022-05-06T09:01:16Z</time>
      </trkpt>
      <trkpt lat="45.3176" lon="4.761">
        <ele>178.46</ele>
        <time>2022-05-06T09:01:17Z</time>
      </trkpt>
      <trkpt lat="45.31761" lon="4.76101">
        <ele>177.98</ele>
        <time>2022-05-06T09:01:18Z</time>
      </trkpt>
      <trkpt lat="45.31783" lon="4.76111">
        <ele>174.62</ele>
        <time>2022-05-06T09:01:33Z</time>
      </trkpt>
      <trkpt lat="45.31799" lon="4.76123">
        <ele>172.21</ele>
        <time>2022-05-06T09:01:51Z</time>
      </trkpt>
      <trkpt lat="45.318" lon="4.76124">
        <ele>172.21</ele>
        <time>2022-05-06T09:01:52Z</time>
      </trkpt>
      <trkpt lat="45.31802" lon="4.76124">
        <ele>172.21</ele>
        <time>2022-05-06T09:01:53Z</time>
      </trkpt>
      <trkpt lat="45.31803" lon="4.76125">
        <ele>171.25</ele>
        <time>2022-05-06T09:01:54Z</time>
      </trkpt>
      <trkpt lat="45.31807" lon="4.76125">
        <ele>171.25</ele>
        <time>2022-05-06T09:01:58Z</time>
      </trkpt>
      <trkpt lat="45.31826" lon="4.76125">
        <ele>167.41</ele>
        <time>2022-05-06T09:02:15Z</time>
      </trkpt>
      <trkpt lat="45.31837" lon="4.76125">
        <ele>165.48</ele>
        <time>2022-05-06T09:02:24Z</time>
      </trkpt>
      <trkpt lat="45.31835" lon="4.76138">
        <ele>162.12</ele>
        <time>2022-05-06T09:02:36Z</time>
      </trkpt>
      <trkpt lat="45.31835" lon="4.76154">
        <ele>160.68</ele>
        <time>2022-05-06T09:02:44Z</time>
      </trkpt>
      <trkpt lat="45.31846" lon="4.76165">
        <ele>157.31</ele>
        <time>2022-05-06T09:02:57Z</time>
      </trkpt>
      <trkpt lat="45.31853" lon="4.76179">
        <ele>154.43</ele>
        <time>2022-05-06T09:03:08Z</time>
      </trkpt>
      <trkpt lat="45.31853" lon="4.76181">
        <ele>154.91</ele>
        <time>2022-05-06T09:03:09Z</time>
      </trkpt>
      <trkpt lat="45.31846" lon="4.76189">
        <ele>153.95</ele>
        <time>2022-05-06T09:03:18Z</time>
      </trkpt>
      <trkpt lat="45.31847" lon="4.762">
        <ele>152.99</ele>
        <time>2022-05-06T09:03:23Z</time>
      </trkpt>
      <trkpt lat="45.31855" lon="4.76225">
        <ele>151.06</ele>
        <time>2022-05-06T09:03:37Z</time>
      </trkpt>
      <trkpt lat="45.31865" lon="4.76252">
        <ele>149.14</ele>
        <time>2022-05-06T09:03:50Z</time>
      </trkpt>
      <trkpt lat="45.31876" lon="4.76278">
        <ele>148.18</ele>
        <time>2022-05-06T09:04:06Z</time>
      </trkpt>
      <trkpt lat="45.31887" lon="4.76297">
        <ele>146.74</ele>
        <time>2022-05-06T09:04:19Z</time>
      </trkpt>
      <trkpt lat="45.31888" lon="4.76303">
        <ele>147.22</ele>
        <time>2022-05-06T09:04:22Z</time>
      </trkpt>
      <trkpt lat="45.31897" lon="4.76319">
        <ele>146.74</ele>
        <time>2022-05-06T09:04:31Z</time>
      </trkpt>
      <trkpt lat="45.31902" lon="4.76338">
        <ele>145.78</ele>
        <time>2022-05-06T09:04:42Z</time>
      </trkpt>
      <trkpt lat="45.31902" lon="4.76369">
        <ele>143.85</ele>
        <time>2022-05-06T09:04:58Z</time>
      </trkpt>
      <trkpt lat="45.31902" lon="4.76375">
        <ele>143.85</ele>
        <time>2022-05-06T09:05:01Z</time>
      </trkpt>
      <trkpt lat="45.31897" lon="4.76399">
        <ele>141.93</ele>
        <time>2022-05-06T09:05:17Z</time>
      </trkpt>
      <trkpt lat="45.31901" lon="4.76418">
        <ele>141.93</ele>
        <time>2022-05-06T09:05:30Z</time>
      </trkpt>
      <trkpt lat="45.31901" lon="4.76422">
        <ele>141.93</ele>
        <time>2022-05-06T09:05:32Z</time>
      </trkpt>
      <trkpt lat="45.31898" lon="4.76448">
        <ele>142.41</ele>
        <time>2022-05-06T09:05:44Z</time>
      </trkpt>
      <trkpt lat="45.31887" lon="4.76463">
        <ele>141.45</ele>
        <time>2022-05-06T09:05:57Z</time>
      </trkpt>
      <trkpt lat="45.31874" lon="4.76475">
        <ele>142.41</ele>
        <time>2022-05-06T09:06:09Z</time>
      </trkpt>
      <trkpt lat="45.3187" lon="4.76486">
        <ele>142.41</ele>
        <time>2022-05-06T09:06:17Z</time>
      </trkpt>
      <trkpt lat="45.31861" lon="4.76518">
        <ele>142.41</ele>
        <time>2022-05-06T09:06:33Z</time>
      </trkpt>
      <trkpt lat="45.31853" lon="4.76526">
        <ele>142.41</ele>
        <time>2022-05-06T09:06:41Z</time>
      </trkpt>
      <trkpt lat="45.31846" lon="4.76541">
        <ele>141.93</ele>
        <time>2022-05-06T09:06:53Z</time>
      </trkpt>
      <trkpt lat="45.31845" lon="4.76541">
        <ele>142.41</ele>
        <time>2022-05-06T09:06:54Z</time>
      </trkpt>
      <trkpt lat="45.31824" lon="4.76562">
        <ele>143.37</ele>
        <time>2022-05-06T09:07:13Z</time>
      </trkpt>
      <trkpt lat="45.31807" lon="4.76588">
        <ele>143.85</ele>
        <time>2022-05-06T09:07:32Z</time>
      </trkpt>
      <trkpt lat="45.31796" lon="4.7661">
        <ele>145.3</ele>
        <time>2022-05-06T09:07:47Z</time>
      </trkpt>
      <trkpt lat="45.31796" lon="4.76614">
        <ele>144.82</ele>
        <time>2022-05-06T09:07:49Z</time>
      </trkpt>
      <trkpt lat="45.318" lon="4.76627">
        <ele>145.3</ele>
        <time>2022-05-06T09:07:57Z</time>
      </trkpt>
      <trkpt lat="45.31804" lon="4.76643">
        <ele>145.78</ele>
        <time>2022-05-06T09:08:07Z</time>
      </trkpt>
      <trkpt lat="45.31817" lon="4.76662">
        <ele>147.22</ele>
        <time>2022-05-06T09:08:20Z</time>
      </trkpt>
      <trkpt lat="45.31819" lon="4.76669">
        <ele>146.74</ele>
        <time>2022-05-06T09:08:24Z</time>
      </trkpt>
      <trkpt lat="45.31832" lon="4.76697">
        <ele>147.7</ele>
        <time>2022-05-06T09:08:42Z</time>
      </trkpt>
      <trkpt lat="45.31836" lon="4.76706">
        <ele>148.18</ele>
        <time>2022-05-06T09:08:48Z</time>
      </trkpt>
      <trkpt lat="45.31848" lon="4.76731">
        <ele>147.22</ele>
        <time>2022-05-06T09:09:04Z</time>
      </trkpt>
      <trkpt lat="45.31859" lon="4.76756">
        <ele>147.7</ele>
        <time>2022-05-06T09:09:20Z</time>
      </trkpt>
      <trkpt lat="45.31868" lon="4.76776">
        <ele>147.22</ele>
        <time>2022-05-06T09:09:32Z</time>
      </trkpt>
      <trkpt lat="45.31877" lon="4.76795">
        <ele>146.26</ele>
        <time>2022-05-06T09:09:47Z</time>
      </trkpt>
      <trkpt lat="45.31885" lon="4.7681">
        <ele>145.3</ele>
        <time>2022-05-06T09:09:56Z</time>
      </trkpt>
      <trkpt lat="45.31893" lon="4.76825">
        <ele>144.82</ele>
        <time>2022-05-06T09:10:04Z</time>
      </trkpt>
      <trkpt lat="45.31896" lon="4.76828">
        <ele>143.85</ele>
        <time>2022-05-06T09:10:08Z</time>
      </trkpt>
      <trkpt lat="45.31908" lon="4.76833">
        <ele>143.37</ele>
        <time>2022-05-06T09:10:16Z</time>
      </trkpt>
      <trkpt lat="45.31925" lon="4.7683">
        <ele>141.93</ele>
        <time>2022-05-06T09:10:31Z</time>
      </trkpt>
      <trkpt lat="45.31927" lon="4.76831">
        <ele>141.93</ele>
        <time>2022-05-06T09:10:32Z</time>
      </trkpt>
      <trkpt lat="45.31932" lon="4.76843">
        <ele>141.45</ele>
        <time>2022-05-06T09:10:39Z</time>
      </trkpt>
      <trkpt lat="45.3194" lon="4.76841">
        <ele>141.45</ele>
        <time>2022-05-06T09:10:46Z</time>
      </trkpt>
      <trkpt lat="45.31944" lon="4.7684">
        <ele>141.45</ele>
        <time>2022-05-06T09:10:49Z</time>
      </trkpt>
      <trkpt lat="45.31946" lon="4.76842">
        <ele>140.97</ele>
        <time>2022-05-06T09:10:51Z</time>
      </trkpt>
      <trkpt lat="45.31948" lon="4.76849">
        <ele>140.49</ele>
        <time>2022-05-06T09:10:55Z</time>
      </trkpt>
      <trkpt lat="45.3195" lon="4.76855">
        <ele>139.53</ele>
        <time>2022-05-06T09:10:58Z</time>
      </trkpt>
      <trkpt lat="45.31952" lon="4.76865">
        <ele>140.01</ele>
        <time>2022-05-06T09:11:03Z</time>
      </trkpt>
      <trkpt lat="45.31961" lon="4.76879">
        <ele>140.97</ele>
        <time>2022-05-06T09:11:14Z</time>
      </trkpt>
      <trkpt lat="45.31967" lon="4.76893">
        <ele>140.97</ele>
        <time>2022-05-06T09:11:25Z</time>
      </trkpt>
      <trkpt lat="45.31976" lon="4.76921">
        <ele>140.01</ele>
        <time>2022-05-06T09:11:40Z</time>
      </trkpt>
      <trkpt lat="45.31982" lon="4.76932">
        <ele>140.97</ele>
        <time>2022-05-06T09:11:46Z</time>
      </trkpt>
      <trkpt lat="45.32001" lon="4.76932">
        <ele>140.01</ele>
        <time>2022-05-06T09:11:59Z</time>
      </trkpt>
      <trkpt lat="45.32008" lon="4.7693">
        <ele>139.05</ele>
        <time>2022-05-06T09:12:04Z</time>
      </trkpt>
      <trkpt lat="45.32021" lon="4.7692">
        <ele>141.45</ele>
        <time>2022-05-06T09:12:18Z</time>
      </trkpt>
      <trkpt lat="45.32036" lon="4.76913">
        <ele>139.53</ele>
        <time>2022-05-06T09:12:30Z</time>
      </trkpt>
      <trkpt lat="45.32047" lon="4.76909">
        <ele>139.05</ele>
        <time>2022-05-06T09:12:39Z</time>
      </trkpt>
      <trkpt lat="45.32065" lon="4.769">
        <ele>139.53</ele>
        <time>2022-05-06T09:12:53Z</time>
      </trkpt>
      <trkpt lat="45.32074" lon="4.76898">
        <ele>139.53</ele>
        <time>2022-05-06T09:13:00Z</time>
      </trkpt>
      <trkpt lat="45.32082" lon="4.76896">
        <ele>139.05</ele>
        <time>2022-05-06T09:13:06Z</time>
      </trkpt>
      <trkpt lat="45.32101" lon="4.76888">
        <ele>139.53</ele>
        <time>2022-05-06T09:13:21Z</time>
      </trkpt>
      <trkpt lat="45.32104" lon="4.76889">
        <ele>139.53</ele>
        <time>2022-05-06T09:13:24Z</time>
      </trkpt>
      <trkpt lat="45.32107" lon="4.76895">
        <ele>140.01</ele>
        <time>2022-05-06T09:13:27Z</time>
      </trkpt>
      <trkpt lat="45.32119" lon="4.76919">
        <ele>139.53</ele>
        <time>2022-05-06T09:13:42Z</time>
      </trkpt>
      <trkpt lat="45.32136" lon="4.76939">
        <ele>139.05</ele>
        <time>2022-05-06T09:13:57Z</time>
      </trkpt>
      <trkpt lat="45.32148" lon="4.76964">
        <ele>139.53</ele>
        <time>2022-05-06T09:14:13Z</time>
      </trkpt>
      <trkpt lat="45.32159" lon="4.76978">
        <ele>139.05</ele>
        <time>2022-05-06T09:14:24Z</time>
      </trkpt>
      <trkpt lat="45.32166" lon="4.76984">
        <ele>139.05</ele>
        <time>2022-05-06T09:14:30Z</time>
      </trkpt>
      <trkpt lat="45.32175" lon="4.77008">
        <ele>140.49</ele>
        <time>2022-05-06T09:14:44Z</time>
      </trkpt>
      <trkpt lat="45.32176" lon="4.77013">
        <ele>140.49</ele>
        <time>2022-05-06T09:14:46Z</time>
      </trkpt>
      <trkpt lat="45.32177" lon="4.77021">
        <ele>140.01</ele>
        <time>2022-05-06T09:14:50Z</time>
      </trkpt>
      <trkpt lat="45.32185" lon="4.7705">
        <ele>140.01</ele>
        <time>2022-05-06T09:15:04Z</time>
      </trkpt>
      <trkpt lat="45.32195" lon="4.77073">
        <ele>139.53</ele>
        <time>2022-05-06T09:15:20Z</time>
      </trkpt>
      <trkpt lat="45.32204" lon="4.77096">
        <ele>140.01</ele>
        <time>2022-05-06T09:15:35Z</time>
      </trkpt>
      <trkpt lat="45.32213" lon="4.77124">
        <ele>139.53</ele>
        <time>2022-05-06T09:15:52Z</time>
      </trkpt>
      <trkpt lat="45.32221" lon="4.77142">
        <ele>140.01</ele>
        <time>2022-05-06T09:16:05Z</time>
      </trkpt>
      <trkpt lat="45.32221" lon="4.77144">
        <ele>139.53</ele>
        <time>2022-05-06T09:16:06Z</time>
      </trkpt>
      <trkpt lat="45.3223" lon="4.77174">
        <ele>139.53</ele>
        <time>2022-05-06T09:16:24Z</time>
      </trkpt>
      <trkpt lat="45.32233" lon="4.77185">
        <ele>140.01</ele>
        <time>2022-05-06T09:16:31Z</time>
      </trkpt>
      <trkpt lat="45.32239" lon="4.77204">
        <ele>139.05</ele>
        <time>2022-05-06T09:16:41Z</time>
      </trkpt>
      <trkpt lat="45.32251" lon="4.77234">
        <ele>140.01</ele>
        <time>2022-05-06T09:17:01Z</time>
      </trkpt>
      <trkpt lat="45.32253" lon="4.77241">
        <ele>139.05</ele>
        <time>2022-05-06T09:17:05Z</time>
      </trkpt>
      <trkpt lat="45.32254" lon="4.77245">
        <ele>140.01</ele>
        <time>2022-05-06T09:17:07Z</time>
      </trkpt>
      <trkpt lat="45.32263" lon="4.77282">
        <ele>139.53</ele>
        <time>2022-05-06T09:17:27Z</time>
      </trkpt>
      <trkpt lat="45.32272" lon="4.77313">
        <ele>140.01</ele>
        <time>2022-05-06T09:17:46Z</time>
      </trkpt>
      <trkpt lat="45.32279" lon="4.77341">
        <ele>139.53</ele>
        <time>2022-05-06T09:18:01Z</time>
      </trkpt>
      <trkpt lat="45.32287" lon="4.77369">
        <ele>139.05</ele>
        <time>2022-05-06T09:18:18Z</time>
      </trkpt>
      <trkpt lat="45.32294" lon="4.77407">
        <ele>139.53</ele>
        <time>2022-05-06T09:18:38Z</time>
      </trkpt>
      <trkpt lat="45.32301" lon="4.77437">
        <ele>138.57</ele>
        <time>2022-05-06T09:18:55Z</time>
      </trkpt>
      <trkpt lat="45.32307" lon="4.77468">
        <ele>139.05</ele>
        <time>2022-05-06T09:19:13Z</time>
      </trkpt>
      <trkpt lat="45.32314" lon="4.775">
        <ele>138.57</ele>
        <time>2022-05-06T09:19:30Z</time>
      </trkpt>
      <trkpt lat="45.32314" lon="4.77507">
        <ele>139.05</ele>
        <time>2022-05-06T09:19:34Z</time>
      </trkpt>
      <trkpt lat="45.32317" lon="4.7752">
        <ele>140.01</ele>
        <time>2022-05-06T09:19:41Z</time>
      </trkpt>
      <trkpt lat="45.32324" lon="4.77544">
        <ele>139.05</ele>
        <time>2022-05-06T09:19:54Z</time>
      </trkpt>
      <trkpt lat="45.32329" lon="4.77581">
        <ele>139.53</ele>
        <time>2022-05-06T09:20:13Z</time>
      </trkpt>
      <trkpt lat="45.32333" lon="4.77608">
        <ele>139.05</ele>
        <time>2022-05-06T09:20:28Z</time>
      </trkpt>
      <trkpt lat="45.32329" lon="4.77625">
        <ele>139.05</ele>
        <time>2022-05-06T09:20:40Z</time>
      </trkpt>
      <trkpt lat="45.32314" lon="4.77634">
        <ele>139.05</ele>
        <time>2022-05-06T09:20:52Z</time>
      </trkpt>
      <trkpt lat="45.32289" lon="4.77643">
        <ele>138.09</ele>
        <time>2022-05-06T09:21:09Z</time>
      </trkpt>
      <trkpt lat="45.32266" lon="4.77647">
        <ele>140.01</ele>
        <time>2022-05-06T09:21:28Z</time>
      </trkpt>
      <trkpt lat="45.32255" lon="4.77658">
        <ele>139.05</ele>
        <time>2022-05-06T09:21:44Z</time>
      </trkpt>
      <trkpt lat="45.32263" lon="4.77681">
        <ele>139.05</ele>
        <time>2022-05-06T09:21:58Z</time>
      </trkpt>
      <trkpt lat="45.32274" lon="4.77708">
        <ele>139.05</ele>
        <time>2022-05-06T09:22:14Z</time>
      </trkpt>
      <trkpt lat="45.32286" lon="4.77728">
        <ele>139.53</ele>
        <time>2022-05-06T09:22:28Z</time>
      </trkpt>
      <trkpt lat="45.32295" lon="4.77756">
        <ele>139.05</ele>
        <time>2022-05-06T09:22:45Z</time>
      </trkpt>
      <trkpt lat="45.32302" lon="4.77773">
        <ele>139.05</ele>
        <time>2022-05-06T09:22:57Z</time>
      </trkpt>
      <trkpt lat="45.3231" lon="4.77778">
        <ele>139.53</ele>
        <time>2022-05-06T09:23:11Z</time>
      </trkpt>
      <trkpt lat="45.32314" lon="4.77775">
        <ele>139.05</ele>
        <time>2022-05-06T09:23:29Z</time>
      </trkpt>
      <trkpt lat="45.32317" lon="4.77774">
        <ele>139.53</ele>
        <time>2022-05-06T09:23:48Z</time>
      </trkpt>
    </trkseg>
  </trk>
</gpx>